
<gpx xmlns="http://www.topografix.com/GPX/1/1" xmlns:gpxx="http://www.garmin.com/xmlschemas/GpxExtensions/v3" xmlns:xsi="http://www.w3.org/2001/XMLSchema-instance" version="1.1" creator="Adze - https://getadze.com/" xsi:schemaLocation="http://www.topografix.com/GPX/1/1 http://www.topografix.com/GPX/1/1/gpx.xsd http://www.garmin.com/xmlschemas/GpxExtensions/v3 http://www8.garmin.com/xmlschemas/GpxExtensionsv3.xsd">
    <metadata>
        <name>Untitled Document</name>
        <link href="http://www.garmin.com"></link>
        <time>2018-03-05T01:56:23.576Z</time>
    </metadata>
    <trk>
        <name>April 2004 - Saturday</name>
        <extensions>
            <gpxx:TrackExtension>
                <gpxx:DisplayColor>DarkGray</gpxx:DisplayColor>
            </gpxx:TrackExtension>
        </extensions>
        <trkseg>
            <trkpt lon="101.063898" lat="12.674940">
                <ele>14.557007</ele>
                <time>2004-04-24T06:31:56Z</time>
            </trkpt>
            <trkpt lon="101.063919" lat="12.674875">
                <ele>14.557007</ele>
                <time>2004-04-24T06:32:18Z</time>
            </trkpt>
            <trkpt lon="101.063876" lat="12.674961">
                <ele>14.076416</ele>
                <time>2004-04-24T06:32:57Z</time>
            </trkpt>
            <trkpt lon="101.063983" lat="12.675004">
                <ele>14.076416</ele>
                <time>2004-04-24T06:33:01Z</time>
            </trkpt>
            <trkpt lon="101.063962" lat="12.675090">
                <ele>14.076416</ele>
                <time>2004-04-24T06:33:08Z</time>
            </trkpt>
            <trkpt lon="101.063275" lat="12.674725">
                <ele>14.076416</ele>
                <time>2004-04-24T06:33:27Z</time>
            </trkpt>
            <trkpt lon="101.062653" lat="12.674339">
                <ele>13.595825</ele>
                <time>2004-04-24T06:33:41Z</time>
            </trkpt>
            <trkpt lon="101.062396" lat="12.674103">
                <ele>13.115112</ele>
                <time>2004-04-24T06:33:51Z</time>
            </trkpt>
            <trkpt lon="101.062396" lat="12.674081">
                <ele>9.269897</ele>
                <time>2004-04-24T06:34:09Z</time>
            </trkpt>
            <trkpt lon="101.062245" lat="12.673910">
                <ele>6.866455</ele>
                <time>2004-04-24T06:34:24Z</time>
            </trkpt>
            <trkpt lon="101.062224" lat="12.673867">
                <ele>6.866455</ele>
                <time>2004-04-24T06:34:25Z</time>
            </trkpt>
            <trkpt lon="101.061516" lat="12.673266">
                <ele>7.827881</ele>
                <time>2004-04-24T06:34:44Z</time>
            </trkpt>
            <trkpt lon="101.061172" lat="12.673244">
                <ele>8.308594</ele>
                <time>2004-04-24T06:34:54Z</time>
            </trkpt>
            <trkpt lon="101.060979" lat="12.673566">
                <ele>7.827881</ele>
                <time>2004-04-24T06:35:03Z</time>
            </trkpt>
            <trkpt lon="101.060851" lat="12.673717">
                <ele>8.308594</ele>
                <time>2004-04-24T06:35:07Z</time>
            </trkpt>
            <trkpt lon="101.060207" lat="12.674210">
                <ele>9.269897</ele>
                <time>2004-04-24T06:35:23Z</time>
            </trkpt>
            <trkpt lon="101.060164" lat="12.674296">
                <ele>9.269897</ele>
                <time>2004-04-24T06:35:25Z</time>
            </trkpt>
            <trkpt lon="101.059778" lat="12.674704">
                <ele>8.789185</ele>
                <time>2004-04-24T06:35:35Z</time>
            </trkpt>
            <trkpt lon="101.059563" lat="12.674918">
                <ele>8.789185</ele>
                <time>2004-04-24T06:35:41Z</time>
            </trkpt>
            <trkpt lon="101.059520" lat="12.675004">
                <ele>8.789185</ele>
                <time>2004-04-24T06:35:43Z</time>
            </trkpt>
            <trkpt lon="101.059155" lat="12.675540">
                <ele>9.269897</ele>
                <time>2004-04-24T06:35:58Z</time>
            </trkpt>
            <trkpt lon="101.059005" lat="12.675927">
                <ele>9.750610</ele>
                <time>2004-04-24T06:36:10Z</time>
            </trkpt>
            <trkpt lon="101.059070" lat="12.676055">
                <ele>10.711792</ele>
                <time>2004-04-24T06:36:16Z</time>
            </trkpt>
            <trkpt lon="101.059155" lat="12.676742">
                <ele>9.750610</ele>
                <time>2004-04-24T06:36:35Z</time>
            </trkpt>
            <trkpt lon="101.059177" lat="12.677021">
                <ele>9.750610</ele>
                <time>2004-04-24T06:36:44Z</time>
            </trkpt>
            <trkpt lon="101.059241" lat="12.677107">
                <ele>12.153809</ele>
                <time>2004-04-24T06:36:59Z</time>
            </trkpt>
            <trkpt lon="101.059263" lat="12.677064">
                <ele>11.673218</ele>
                <time>2004-04-24T06:37:13Z</time>
            </trkpt>
            <trkpt lon="101.059177" lat="12.676892">
                <ele>7.827881</ele>
                <time>2004-04-24T06:37:24Z</time>
            </trkpt>
            <trkpt lon="101.059155" lat="12.676506">
                <ele>7.347168</ele>
                <time>2004-04-24T06:37:39Z</time>
            </trkpt>
            <trkpt lon="101.059134" lat="12.676077">
                <ele>8.308594</ele>
                <time>2004-04-24T06:37:55Z</time>
            </trkpt>
            <trkpt lon="101.058984" lat="12.675862">
                <ele>9.269897</ele>
                <time>2004-04-24T06:38:09Z</time>
            </trkpt>
            <trkpt lon="101.058619" lat="12.675712">
                <ele>11.192505</ele>
                <time>2004-04-24T06:38:24Z</time>
            </trkpt>
            <trkpt lon="101.058619" lat="12.675712">
                <ele>11.192505</ele>
                <time>2004-04-24T06:38:29Z</time>
            </trkpt>
            <trkpt lon="101.058877" lat="12.675862">
                <ele>10.711792</ele>
                <time>2004-04-24T06:38:39Z</time>
            </trkpt>
            <trkpt lon="101.059113" lat="12.675991">
                <ele>13.115112</ele>
                <time>2004-04-24T06:38:46Z</time>
            </trkpt>
            <trkpt lon="101.059155" lat="12.676227">
                <ele>11.673218</ele>
                <time>2004-04-24T06:38:56Z</time>
            </trkpt>
            <trkpt lon="101.059155" lat="12.676227">
                <ele>13.115112</ele>
                <time>2004-04-24T06:39:14Z</time>
            </trkpt>
            <trkpt lon="101.059155" lat="12.676206">
                <ele>13.115112</ele>
                <time>2004-04-24T06:39:16Z</time>
            </trkpt>
            <trkpt lon="101.059155" lat="12.676013">
                <ele>12.153809</ele>
                <time>2004-04-24T06:39:27Z</time>
            </trkpt>
            <trkpt lon="101.059263" lat="12.676034">
                <ele>10.711792</ele>
                <time>2004-04-24T06:39:33Z</time>
            </trkpt>
            <trkpt lon="101.059670" lat="12.676334">
                <ele>10.711792</ele>
                <time>2004-04-24T06:39:52Z</time>
            </trkpt>
            <trkpt lon="101.060035" lat="12.676570">
                <ele>11.192505</ele>
                <time>2004-04-24T06:40:05Z</time>
            </trkpt>
            <trkpt lon="101.060765" lat="12.677021">
                <ele>10.231201</ele>
                <time>2004-04-24T06:40:23Z</time>
            </trkpt>
            <trkpt lon="101.061344" lat="12.677386">
                <ele>11.673218</ele>
                <time>2004-04-24T06:40:39Z</time>
            </trkpt>
            <trkpt lon="101.061924" lat="12.677493">
                <ele>12.634399</ele>
                <time>2004-04-24T06:40:55Z</time>
            </trkpt>
            <trkpt lon="101.062331" lat="12.677858">
                <ele>12.634399</ele>
                <time>2004-04-24T06:41:12Z</time>
            </trkpt>
            <trkpt lon="101.062353" lat="12.677836">
                <ele>12.153809</ele>
                <time>2004-04-24T06:41:19Z</time>
            </trkpt>
            <trkpt lon="101.062160" lat="12.677643">
                <ele>12.153809</ele>
                <time>2004-04-24T06:41:29Z</time>
            </trkpt>
            <trkpt lon="101.062138" lat="12.677600">
                <ele>12.153809</ele>
                <time>2004-04-24T06:41:30Z</time>
            </trkpt>
            <trkpt lon="101.061666" lat="12.677386">
                <ele>12.634399</ele>
                <time>2004-04-24T06:41:41Z</time>
            </trkpt>
            <trkpt lon="101.061494" lat="12.677364">
                <ele>12.634399</ele>
                <time>2004-04-24T06:41:45Z</time>
            </trkpt>
            <trkpt lon="101.061151" lat="12.677557">
                <ele>12.153809</ele>
                <time>2004-04-24T06:41:56Z</time>
            </trkpt>
            <trkpt lon="101.060894" lat="12.678072">
                <ele>13.115112</ele>
                <time>2004-04-24T06:42:10Z</time>
            </trkpt>
            <trkpt lon="101.060851" lat="12.678158">
                <ele>12.634399</ele>
                <time>2004-04-24T06:42:12Z</time>
            </trkpt>
            <trkpt lon="101.060271" lat="12.678974">
                <ele>13.115112</ele>
                <time>2004-04-24T06:42:32Z</time>
            </trkpt>
            <trkpt lon="101.060164" lat="12.679081">
                <ele>13.115112</ele>
                <time>2004-04-24T06:42:35Z</time>
            </trkpt>
            <trkpt lon="101.060100" lat="12.679167">
                <ele>13.115112</ele>
                <time>2004-04-24T06:42:37Z</time>
            </trkpt>
            <trkpt lon="101.060078" lat="12.679338">
                <ele>13.115112</ele>
                <time>2004-04-24T06:42:41Z</time>
            </trkpt>
            <trkpt lon="101.060121" lat="12.679939">
                <ele>13.115112</ele>
                <time>2004-04-24T06:42:57Z</time>
            </trkpt>
            <trkpt lon="101.060121" lat="12.679918">
                <ele>13.595825</ele>
                <time>2004-04-24T06:43:08Z</time>
            </trkpt>
            <trkpt lon="101.060143" lat="12.679853">
                <ele>13.115112</ele>
                <time>2004-04-24T06:43:13Z</time>
            </trkpt>
            <trkpt lon="101.060078" lat="12.679811">
                <ele>13.115112</ele>
                <time>2004-04-24T06:43:18Z</time>
            </trkpt>
            <trkpt lon="101.059842" lat="12.679875">
                <ele>13.595825</ele>
                <time>2004-04-24T06:43:25Z</time>
            </trkpt>
            <trkpt lon="101.059628" lat="12.679961">
                <ele>12.634399</ele>
                <time>2004-04-24T06:43:32Z</time>
            </trkpt>
            <trkpt lon="101.059413" lat="12.680025">
                <ele>13.115112</ele>
                <time>2004-04-24T06:43:38Z</time>
            </trkpt>
            <trkpt lon="101.059349" lat="12.680154">
                <ele>12.634399</ele>
                <time>2004-04-24T06:43:43Z</time>
            </trkpt>
            <trkpt lon="101.059413" lat="12.680368">
                <ele>12.634399</ele>
                <time>2004-04-24T06:43:50Z</time>
            </trkpt>
            <trkpt lon="101.059563" lat="12.680883">
                <ele>12.634399</ele>
                <time>2004-04-24T06:44:04Z</time>
            </trkpt>
            <trkpt lon="101.059585" lat="12.680991">
                <ele>12.634399</ele>
                <time>2004-04-24T06:44:07Z</time>
            </trkpt>
            <trkpt lon="101.059434" lat="12.681077">
                <ele>12.153809</ele>
                <time>2004-04-24T06:44:11Z</time>
            </trkpt>
            <trkpt lon="101.059263" lat="12.681334">
                <ele>14.557007</ele>
                <time>2004-04-24T06:44:20Z</time>
            </trkpt>
            <trkpt lon="101.059177" lat="12.681441">
                <ele>13.115112</ele>
                <time>2004-04-24T06:44:23Z</time>
            </trkpt>
            <trkpt lon="101.059113" lat="12.681506">
                <ele>13.115112</ele>
                <time>2004-04-24T06:44:25Z</time>
            </trkpt>
            <trkpt lon="101.058962" lat="12.681592">
                <ele>13.115112</ele>
                <time>2004-04-24T06:44:30Z</time>
            </trkpt>
            <trkpt lon="101.058877" lat="12.681720">
                <ele>12.634399</ele>
                <time>2004-04-24T06:44:34Z</time>
            </trkpt>
            <trkpt lon="101.058769" lat="12.681870">
                <ele>13.595825</ele>
                <time>2004-04-24T06:44:38Z</time>
            </trkpt>
            <trkpt lon="101.058683" lat="12.682042">
                <ele>13.115112</ele>
                <time>2004-04-24T06:44:42Z</time>
            </trkpt>
            <trkpt lon="101.058576" lat="12.682235">
                <ele>12.153809</ele>
                <time>2004-04-24T06:44:48Z</time>
            </trkpt>
            <trkpt lon="101.058962" lat="12.682664">
                <ele>12.153809</ele>
                <time>2004-04-24T06:45:00Z</time>
            </trkpt>
            <trkpt lon="101.059391" lat="12.683802">
                <ele>12.153809</ele>
                <time>2004-04-24T06:45:20Z</time>
            </trkpt>
            <trkpt lon="101.059585" lat="12.685261">
                <ele>13.595825</ele>
                <time>2004-04-24T06:45:43Z</time>
            </trkpt>
            <trkpt lon="101.059520" lat="12.686870">
                <ele>14.557007</ele>
                <time>2004-04-24T06:46:08Z</time>
            </trkpt>
            <trkpt lon="101.059649" lat="12.688093">
                <ele>15.518433</ele>
                <time>2004-04-24T06:46:28Z</time>
            </trkpt>
            <trkpt lon="101.059649" lat="12.688200">
                <ele>15.999023</ele>
                <time>2004-04-24T06:46:30Z</time>
            </trkpt>
            <trkpt lon="101.059585" lat="12.688544">
                <ele>15.037720</ele>
                <time>2004-04-24T06:46:36Z</time>
            </trkpt>
            <trkpt lon="101.059649" lat="12.689724">
                <ele>15.037720</ele>
                <time>2004-04-24T06:46:57Z</time>
            </trkpt>
            <trkpt lon="101.059756" lat="12.690926">
                <ele>16.960449</ele>
                <time>2004-04-24T06:47:17Z</time>
            </trkpt>
            <trkpt lon="101.059885" lat="12.692041">
                <ele>17.441162</ele>
                <time>2004-04-24T06:47:35Z</time>
            </trkpt>
            <trkpt lon="101.060357" lat="12.693415">
                <ele>18.883057</ele>
                <time>2004-04-24T06:47:58Z</time>
            </trkpt>
            <trkpt lon="101.060915" lat="12.694423">
                <ele>16.960449</ele>
                <time>2004-04-24T06:48:17Z</time>
            </trkpt>
            <trkpt lon="101.060958" lat="12.694509">
                <ele>17.441162</ele>
                <time>2004-04-24T06:48:19Z</time>
            </trkpt>
            <trkpt lon="101.060915" lat="12.694638">
                <ele>18.402344</ele>
                <time>2004-04-24T06:48:23Z</time>
            </trkpt>
            <trkpt lon="101.060185" lat="12.695174">
                <ele>20.805664</ele>
                <time>2004-04-24T06:48:39Z</time>
            </trkpt>
            <trkpt lon="101.060100" lat="12.695239">
                <ele>20.805664</ele>
                <time>2004-04-24T06:48:41Z</time>
            </trkpt>
            <trkpt lon="101.059992" lat="12.695389">
                <ele>20.805664</ele>
                <time>2004-04-24T06:48:44Z</time>
            </trkpt>
            <trkpt lon="101.059735" lat="12.695539">
                <ele>20.324951</ele>
                <time>2004-04-24T06:48:49Z</time>
            </trkpt>
            <trkpt lon="101.059434" lat="12.695625">
                <ele>21.286377</ele>
                <time>2004-04-24T06:48:54Z</time>
            </trkpt>
            <trkpt lon="101.059134" lat="12.695646">
                <ele>21.286377</ele>
                <time>2004-04-24T06:48:59Z</time>
            </trkpt>
            <trkpt lon="101.058791" lat="12.695947">
                <ele>20.805664</ele>
                <time>2004-04-24T06:49:08Z</time>
            </trkpt>
            <trkpt lon="101.058769" lat="12.696075">
                <ele>20.805664</ele>
                <time>2004-04-24T06:49:10Z</time>
            </trkpt>
            <trkpt lon="101.058769" lat="12.696376">
                <ele>20.324951</ele>
                <time>2004-04-24T06:49:15Z</time>
            </trkpt>
            <trkpt lon="101.058469" lat="12.696505">
                <ele>21.286377</ele>
                <time>2004-04-24T06:49:22Z</time>
            </trkpt>
            <trkpt lon="101.058404" lat="12.696505">
                <ele>21.766968</ele>
                <time>2004-04-24T06:49:23Z</time>
            </trkpt>
            <trkpt lon="101.058190" lat="12.696505">
                <ele>21.766968</ele>
                <time>2004-04-24T06:49:28Z</time>
            </trkpt>
            <trkpt lon="101.057932" lat="12.696805">
                <ele>22.247559</ele>
                <time>2004-04-24T06:49:37Z</time>
            </trkpt>
            <trkpt lon="101.057932" lat="12.696891">
                <ele>22.247559</ele>
                <time>2004-04-24T06:49:39Z</time>
            </trkpt>
            <trkpt lon="101.057975" lat="12.697835">
                <ele>23.208984</ele>
                <time>2004-04-24T06:49:58Z</time>
            </trkpt>
            <trkpt lon="101.057975" lat="12.698050">
                <ele>23.208984</ele>
                <time>2004-04-24T06:50:02Z</time>
            </trkpt>
            <trkpt lon="101.057825" lat="12.698264">
                <ele>24.651001</ele>
                <time>2004-04-24T06:50:08Z</time>
            </trkpt>
            <trkpt lon="101.057074" lat="12.698736">
                <ele>25.612305</ele>
                <time>2004-04-24T06:50:26Z</time>
            </trkpt>
            <trkpt lon="101.056452" lat="12.699080">
                <ele>28.015503</ele>
                <time>2004-04-24T06:50:41Z</time>
            </trkpt>
            <trkpt lon="101.056366" lat="12.699122">
                <ele>28.015503</ele>
                <time>2004-04-24T06:50:43Z</time>
            </trkpt>
            <trkpt lon="101.056023" lat="12.699423">
                <ele>28.976929</ele>
                <time>2004-04-24T06:50:53Z</time>
            </trkpt>
            <trkpt lon="101.055357" lat="12.700067">
                <ele>31.380127</ele>
                <time>2004-04-24T06:51:11Z</time>
            </trkpt>
            <trkpt lon="101.055057" lat="12.700431">
                <ele>30.899536</ele>
                <time>2004-04-24T06:51:22Z</time>
            </trkpt>
            <trkpt lon="101.054950" lat="12.700388">
                <ele>31.380127</ele>
                <time>2004-04-24T06:51:28Z</time>
            </trkpt>
            <trkpt lon="101.054842" lat="12.699938">
                <ele>30.899536</ele>
                <time>2004-04-24T06:51:44Z</time>
            </trkpt>
            <trkpt lon="101.054821" lat="12.699895">
                <ele>30.899536</ele>
                <time>2004-04-24T06:51:46Z</time>
            </trkpt>
            <trkpt lon="101.054778" lat="12.699852">
                <ele>31.380127</ele>
                <time>2004-04-24T06:51:57Z</time>
            </trkpt>
            <trkpt lon="101.054800" lat="12.699852">
                <ele>30.899536</ele>
                <time>2004-04-24T06:52:15Z</time>
            </trkpt>
            <trkpt lon="101.054800" lat="12.699852">
                <ele>31.380127</ele>
                <time>2004-04-24T06:52:17Z</time>
            </trkpt>
            <trkpt lon="101.054778" lat="12.699766">
                <ele>31.860718</ele>
                <time>2004-04-24T06:52:21Z</time>
            </trkpt>
            <trkpt lon="101.054735" lat="12.699659">
                <ele>31.380127</ele>
                <time>2004-04-24T06:52:24Z</time>
            </trkpt>
            <trkpt lon="101.054714" lat="12.699573">
                <ele>31.380127</ele>
                <time>2004-04-24T06:52:26Z</time>
            </trkpt>
            <trkpt lon="101.054456" lat="12.698886">
                <ele>29.938110</ele>
                <time>2004-04-24T06:52:43Z</time>
            </trkpt>
            <trkpt lon="101.054564" lat="12.698822">
                <ele>29.457520</ele>
                <time>2004-04-24T06:52:47Z</time>
            </trkpt>
            <trkpt lon="101.054907" lat="12.698715">
                <ele>30.899536</ele>
                <time>2004-04-24T06:53:00Z</time>
            </trkpt>
            <trkpt lon="101.054885" lat="12.698693">
                <ele>31.380127</ele>
                <time>2004-04-24T06:53:12Z</time>
            </trkpt>
            <trkpt lon="101.054778" lat="12.698736">
                <ele>30.418823</ele>
                <time>2004-04-24T06:53:17Z</time>
            </trkpt>
            <trkpt lon="101.054521" lat="12.698865">
                <ele>29.938110</ele>
                <time>2004-04-24T06:53:30Z</time>
            </trkpt>
            <trkpt lon="101.054585" lat="12.698886">
                <ele>31.380127</ele>
                <time>2004-04-24T06:53:47Z</time>
            </trkpt>
            <trkpt lon="101.054564" lat="12.698886">
                <ele>31.380127</ele>
                <time>2004-04-24T06:54:04Z</time>
            </trkpt>
            <trkpt lon="101.054478" lat="12.698865">
                <ele>30.899536</ele>
                <time>2004-04-24T06:54:07Z</time>
            </trkpt>
            <trkpt lon="101.054413" lat="12.698758">
                <ele>30.899536</ele>
                <time>2004-04-24T06:54:11Z</time>
            </trkpt>
            <trkpt lon="101.054285" lat="12.698264">
                <ele>29.938110</ele>
                <time>2004-04-24T06:54:25Z</time>
            </trkpt>
            <trkpt lon="101.054049" lat="12.697942">
                <ele>28.976929</ele>
                <time>2004-04-24T06:54:38Z</time>
            </trkpt>
            <trkpt lon="101.053448" lat="12.697942">
                <ele>29.457520</ele>
                <time>2004-04-24T06:54:55Z</time>
            </trkpt>
            <trkpt lon="101.052804" lat="12.697942">
                <ele>28.496216</ele>
                <time>2004-04-24T06:55:12Z</time>
            </trkpt>
            <trkpt lon="101.052439" lat="12.697856">
                <ele>27.534912</ele>
                <time>2004-04-24T06:55:24Z</time>
            </trkpt>
            <trkpt lon="101.052461" lat="12.697878">
                <ele>27.534912</ele>
                <time>2004-04-24T06:55:39Z</time>
            </trkpt>
            <trkpt lon="101.052589" lat="12.697921">
                <ele>28.015503</ele>
                <time>2004-04-24T06:55:45Z</time>
            </trkpt>
            <trkpt lon="101.053061" lat="12.697942">
                <ele>29.457520</ele>
                <time>2004-04-24T06:56:00Z</time>
            </trkpt>
            <trkpt lon="101.053598" lat="12.697942">
                <ele>30.418823</ele>
                <time>2004-04-24T06:56:15Z</time>
            </trkpt>
            <trkpt lon="101.054134" lat="12.697985">
                <ele>30.899536</ele>
                <time>2004-04-24T06:56:30Z</time>
            </trkpt>
            <trkpt lon="101.054285" lat="12.698328">
                <ele>31.380127</ele>
                <time>2004-04-24T06:56:41Z</time>
            </trkpt>
            <trkpt lon="101.054349" lat="12.698586">
                <ele>30.899536</ele>
                <time>2004-04-24T06:56:49Z</time>
            </trkpt>
            <trkpt lon="101.054242" lat="12.698672">
                <ele>30.899536</ele>
                <time>2004-04-24T06:56:54Z</time>
            </trkpt>
            <trkpt lon="101.053576" lat="12.698672">
                <ele>29.457520</ele>
                <time>2004-04-24T06:57:11Z</time>
            </trkpt>
            <trkpt lon="101.053147" lat="12.698650">
                <ele>28.496216</ele>
                <time>2004-04-24T06:57:27Z</time>
            </trkpt>
            <trkpt lon="101.052976" lat="12.698672">
                <ele>28.496216</ele>
                <time>2004-04-24T06:57:40Z</time>
            </trkpt>
            <trkpt lon="101.052868" lat="12.698672">
                <ele>28.015503</ele>
                <time>2004-04-24T06:57:46Z</time>
            </trkpt>
            <trkpt lon="101.052783" lat="12.698693">
                <ele>27.054321</ele>
                <time>2004-04-24T06:57:58Z</time>
            </trkpt>
            <trkpt lon="101.052783" lat="12.698715">
                <ele>27.534912</ele>
                <time>2004-04-24T06:58:13Z</time>
            </trkpt>
            <trkpt lon="101.052825" lat="12.698736">
                <ele>27.534912</ele>
                <time>2004-04-24T06:58:19Z</time>
            </trkpt>
            <trkpt lon="101.053126" lat="12.698672">
                <ele>28.496216</ele>
                <time>2004-04-24T06:58:34Z</time>
            </trkpt>
            <trkpt lon="101.053727" lat="12.698672">
                <ele>30.418823</ele>
                <time>2004-04-24T06:58:52Z</time>
            </trkpt>
            <trkpt lon="101.054327" lat="12.698672">
                <ele>31.380127</ele>
                <time>2004-04-24T06:59:08Z</time>
            </trkpt>
            <trkpt lon="101.054392" lat="12.698736">
                <ele>31.380127</ele>
                <time>2004-04-24T06:59:12Z</time>
            </trkpt>
            <trkpt lon="101.054456" lat="12.698886">
                <ele>29.938110</ele>
                <time>2004-04-24T06:59:22Z</time>
            </trkpt>
            <trkpt lon="101.054521" lat="12.698865">
                <ele>29.938110</ele>
                <time>2004-04-24T06:59:26Z</time>
            </trkpt>
            <trkpt lon="101.055036" lat="12.698629">
                <ele>30.418823</ele>
                <time>2004-04-24T06:59:41Z</time>
            </trkpt>
            <trkpt lon="101.055422" lat="12.698436">
                <ele>30.418823</ele>
                <time>2004-04-24T06:59:55Z</time>
            </trkpt>
            <trkpt lon="101.055422" lat="12.698436">
                <ele>30.418823</ele>
                <time>2004-04-24T07:00:08Z</time>
            </trkpt>
            <trkpt lon="101.055400" lat="12.698457">
                <ele>30.418823</ele>
                <time>2004-04-24T07:00:12Z</time>
            </trkpt>
            <trkpt lon="101.055315" lat="12.698500">
                <ele>30.418823</ele>
                <time>2004-04-24T07:00:17Z</time>
            </trkpt>
            <trkpt lon="101.054628" lat="12.698801">
                <ele>30.418823</ele>
                <time>2004-04-24T07:00:36Z</time>
            </trkpt>
            <trkpt lon="101.054478" lat="12.698908">
                <ele>30.418823</ele>
                <time>2004-04-24T07:00:42Z</time>
            </trkpt>
            <trkpt lon="101.054478" lat="12.699080">
                <ele>30.418823</ele>
                <time>2004-04-24T07:00:49Z</time>
            </trkpt>
            <trkpt lon="101.054649" lat="12.699487">
                <ele>29.457520</ele>
                <time>2004-04-24T07:01:05Z</time>
            </trkpt>
            <trkpt lon="101.054671" lat="12.699487">
                <ele>28.976929</ele>
                <time>2004-04-24T07:01:07Z</time>
            </trkpt>
            <trkpt lon="101.054564" lat="12.699401">
                <ele>29.457520</ele>
                <time>2004-04-24T07:01:15Z</time>
            </trkpt>
            <trkpt lon="101.054177" lat="12.699466">
                <ele>29.457520</ele>
                <time>2004-04-24T07:01:28Z</time>
            </trkpt>
            <trkpt lon="101.053920" lat="12.699530">
                <ele>29.938110</ele>
                <time>2004-04-24T07:01:42Z</time>
            </trkpt>
            <trkpt lon="101.053941" lat="12.699509">
                <ele>30.899536</ele>
                <time>2004-04-24T07:01:48Z</time>
            </trkpt>
            <trkpt lon="101.053963" lat="12.699509">
                <ele>30.899536</ele>
                <time>2004-04-24T07:01:50Z</time>
            </trkpt>
            <trkpt lon="101.053941" lat="12.699401">
                <ele>30.899536</ele>
                <time>2004-04-24T07:01:55Z</time>
            </trkpt>
            <trkpt lon="101.053791" lat="12.698908">
                <ele>28.496216</ele>
                <time>2004-04-24T07:02:13Z</time>
            </trkpt>
            <trkpt lon="101.053770" lat="12.698886">
                <ele>28.015503</ele>
                <time>2004-04-24T07:02:21Z</time>
            </trkpt>
            <trkpt lon="101.053855" lat="12.699230">
                <ele>28.015503</ele>
                <time>2004-04-24T07:02:34Z</time>
            </trkpt>
            <trkpt lon="101.053941" lat="12.699530">
                <ele>28.976929</ele>
                <time>2004-04-24T07:02:50Z</time>
            </trkpt>
            <trkpt lon="101.053920" lat="12.699530">
                <ele>28.976929</ele>
                <time>2004-04-24T07:02:51Z</time>
            </trkpt>
            <trkpt lon="101.053641" lat="12.699594">
                <ele>28.976929</ele>
                <time>2004-04-24T07:03:05Z</time>
            </trkpt>
            <trkpt lon="101.053426" lat="12.699637">
                <ele>29.457520</ele>
                <time>2004-04-24T07:03:17Z</time>
            </trkpt>
            <trkpt lon="101.053383" lat="12.699702">
                <ele>29.457520</ele>
                <time>2004-04-24T07:03:27Z</time>
            </trkpt>
            <trkpt lon="101.053448" lat="12.699659">
                <ele>29.938110</ele>
                <time>2004-04-24T07:03:32Z</time>
            </trkpt>
            <trkpt lon="101.053770" lat="12.699594">
                <ele>29.457520</ele>
                <time>2004-04-24T07:03:47Z</time>
            </trkpt>
            <trkpt lon="101.054156" lat="12.699487">
                <ele>30.418823</ele>
                <time>2004-04-24T07:04:02Z</time>
            </trkpt>
            <trkpt lon="101.054478" lat="12.699423">
                <ele>31.380127</ele>
                <time>2004-04-24T07:04:15Z</time>
            </trkpt>
            <trkpt lon="101.054585" lat="12.699337">
                <ele>30.899536</ele>
                <time>2004-04-24T07:04:20Z</time>
            </trkpt>
            <trkpt lon="101.054564" lat="12.699251">
                <ele>31.380127</ele>
                <time>2004-04-24T07:04:24Z</time>
            </trkpt>
            <trkpt lon="101.054499" lat="12.698951">
                <ele>30.899536</ele>
                <time>2004-04-24T07:04:39Z</time>
            </trkpt>
            <trkpt lon="101.054499" lat="12.698865">
                <ele>30.899536</ele>
                <time>2004-04-24T07:04:52Z</time>
            </trkpt>
            <trkpt lon="101.054585" lat="12.699187">
                <ele>31.380127</ele>
                <time>2004-04-24T07:05:05Z</time>
            </trkpt>
            <trkpt lon="101.054821" lat="12.699873">
                <ele>29.457520</ele>
                <time>2004-04-24T07:05:21Z</time>
            </trkpt>
            <trkpt lon="101.054928" lat="12.700346">
                <ele>29.457520</ele>
                <time>2004-04-24T07:05:33Z</time>
            </trkpt>
            <trkpt lon="101.054821" lat="12.700388">
                <ele>28.976929</ele>
                <time>2004-04-24T07:05:43Z</time>
            </trkpt>
            <trkpt lon="101.054842" lat="12.700410">
                <ele>29.938110</ele>
                <time>2004-04-24T07:06:01Z</time>
            </trkpt>
            <trkpt lon="101.054993" lat="12.700431">
                <ele>30.418823</ele>
                <time>2004-04-24T07:06:09Z</time>
            </trkpt>
            <trkpt lon="101.055014" lat="12.700453">
                <ele>30.899536</ele>
                <time>2004-04-24T07:06:24Z</time>
            </trkpt>
            <trkpt lon="101.055057" lat="12.700689">
                <ele>29.938110</ele>
                <time>2004-04-24T07:06:38Z</time>
            </trkpt>
            <trkpt lon="101.055186" lat="12.701161">
                <ele>28.496216</ele>
                <time>2004-04-24T07:06:52Z</time>
            </trkpt>
            <trkpt lon="101.055186" lat="12.701311">
                <ele>28.976929</ele>
                <time>2004-04-24T07:06:58Z</time>
            </trkpt>
            <trkpt lon="101.055100" lat="12.701333">
                <ele>28.496216</ele>
                <time>2004-04-24T07:07:00Z</time>
            </trkpt>
            <trkpt lon="101.054542" lat="12.701547">
                <ele>30.899536</ele>
                <time>2004-04-24T07:07:15Z</time>
            </trkpt>
            <trkpt lon="101.054349" lat="12.701933">
                <ele>31.380127</ele>
                <time>2004-04-24T07:07:30Z</time>
            </trkpt>
            <trkpt lon="101.054435" lat="12.702255">
                <ele>30.418823</ele>
                <time>2004-04-24T07:07:44Z</time>
            </trkpt>
            <trkpt lon="101.054521" lat="12.702513">
                <ele>30.418823</ele>
                <time>2004-04-24T07:07:57Z</time>
            </trkpt>
            <trkpt lon="101.054564" lat="12.702856">
                <ele>31.380127</ele>
                <time>2004-04-24T07:08:15Z</time>
            </trkpt>
            <trkpt lon="101.054585" lat="12.703156">
                <ele>32.822266</ele>
                <time>2004-04-24T07:08:32Z</time>
            </trkpt>
            <trkpt lon="101.054564" lat="12.703457">
                <ele>32.822266</ele>
                <time>2004-04-24T07:08:49Z</time>
            </trkpt>
            <trkpt lon="101.054564" lat="12.703478">
                <ele>32.341553</ele>
                <time>2004-04-24T07:09:06Z</time>
            </trkpt>
            <trkpt lon="101.054542" lat="12.703521">
                <ele>32.341553</ele>
                <time>2004-04-24T07:09:25Z</time>
            </trkpt>
            <trkpt lon="101.054521" lat="12.703543">
                <ele>32.341553</ele>
                <time>2004-04-24T07:09:37Z</time>
            </trkpt>
            <trkpt lon="101.054370" lat="12.703521">
                <ele>33.783447</ele>
                <time>2004-04-24T07:09:50Z</time>
            </trkpt>
            <trkpt lon="101.054070" lat="12.703500">
                <ele>34.264160</ele>
                <time>2004-04-24T07:10:02Z</time>
            </trkpt>
            <trkpt lon="101.053791" lat="12.703500">
                <ele>34.264160</ele>
                <time>2004-04-24T07:10:14Z</time>
            </trkpt>
            <trkpt lon="101.053662" lat="12.703500">
                <ele>33.302856</ele>
                <time>2004-04-24T07:10:21Z</time>
            </trkpt>
            <trkpt lon="101.053383" lat="12.703435">
                <ele>35.225464</ele>
                <time>2004-04-24T07:10:37Z</time>
            </trkpt>
            <trkpt lon="101.053061" lat="12.703521">
                <ele>36.186768</ele>
                <time>2004-04-24T07:10:52Z</time>
            </trkpt>
            <trkpt lon="101.052825" lat="12.703521">
                <ele>35.225464</ele>
                <time>2004-04-24T07:11:03Z</time>
            </trkpt>
            <trkpt lon="101.052611" lat="12.703564">
                <ele>35.225464</ele>
                <time>2004-04-24T07:11:19Z</time>
            </trkpt>
            <trkpt lon="101.051924" lat="12.703543">
                <ele>36.667480</ele>
                <time>2004-04-24T07:11:41Z</time>
            </trkpt>
            <trkpt lon="101.051409" lat="12.703779">
                <ele>37.148071</ele>
                <time>2004-04-24T07:11:57Z</time>
            </trkpt>
            <trkpt lon="101.050744" lat="12.704058">
                <ele>37.148071</ele>
                <time>2004-04-24T07:12:13Z</time>
            </trkpt>
            <trkpt lon="101.049907" lat="12.704401">
                <ele>38.109375</ele>
                <time>2004-04-24T07:12:34Z</time>
            </trkpt>
            <trkpt lon="101.049113" lat="12.704680">
                <ele>38.590088</ele>
                <time>2004-04-24T07:12:52Z</time>
            </trkpt>
            <trkpt lon="101.048877" lat="12.704744">
                <ele>38.590088</ele>
                <time>2004-04-24T07:13:04Z</time>
            </trkpt>
            <trkpt lon="101.048899" lat="12.704744">
                <ele>38.590088</ele>
                <time>2004-04-24T07:13:07Z</time>
            </trkpt>
            <trkpt lon="101.048942" lat="12.704723">
                <ele>38.109375</ele>
                <time>2004-04-24T07:13:11Z</time>
            </trkpt>
            <trkpt lon="101.049049" lat="12.704701">
                <ele>37.148071</ele>
                <time>2004-04-24T07:13:26Z</time>
            </trkpt>
            <trkpt lon="101.049027" lat="12.704701">
                <ele>36.667480</ele>
                <time>2004-04-24T07:13:39Z</time>
            </trkpt>
            <trkpt lon="101.048813" lat="12.704723">
                <ele>35.706055</ele>
                <time>2004-04-24T07:13:48Z</time>
            </trkpt>
            <trkpt lon="101.048791" lat="12.704229">
                <ele>34.744873</ele>
                <time>2004-04-24T07:14:02Z</time>
            </trkpt>
            <trkpt lon="101.048748" lat="12.703242">
                <ele>34.264160</ele>
                <time>2004-04-24T07:14:22Z</time>
            </trkpt>
            <trkpt lon="101.048727" lat="12.702298">
                <ele>32.822266</ele>
                <time>2004-04-24T07:14:39Z</time>
            </trkpt>
            <trkpt lon="101.048684" lat="12.701182">
                <ele>32.341553</ele>
                <time>2004-04-24T07:15:00Z</time>
            </trkpt>
            <trkpt lon="101.048663" lat="12.700324">
                <ele>32.341553</ele>
                <time>2004-04-24T07:15:20Z</time>
            </trkpt>
            <trkpt lon="101.048641" lat="12.699766">
                <ele>31.380127</ele>
                <time>2004-04-24T07:15:35Z</time>
            </trkpt>
            <trkpt lon="101.048620" lat="12.699251">
                <ele>31.860718</ele>
                <time>2004-04-24T07:15:52Z</time>
            </trkpt>
            <trkpt lon="101.048598" lat="12.699165">
                <ele>31.860718</ele>
                <time>2004-04-24T07:15:55Z</time>
            </trkpt>
            <trkpt lon="101.048555" lat="12.699208">
                <ele>32.341553</ele>
                <time>2004-04-24T07:16:00Z</time>
            </trkpt>
            <trkpt lon="101.048598" lat="12.699831">
                <ele>32.822266</ele>
                <time>2004-04-24T07:16:17Z</time>
            </trkpt>
            <trkpt lon="101.048620" lat="12.700582">
                <ele>32.341553</ele>
                <time>2004-04-24T07:16:35Z</time>
            </trkpt>
            <trkpt lon="101.048620" lat="12.700603">
                <ele>31.860718</ele>
                <time>2004-04-24T07:16:36Z</time>
            </trkpt>
            <trkpt lon="101.048534" lat="12.700624">
                <ele>31.860718</ele>
                <time>2004-04-24T07:16:42Z</time>
            </trkpt>
            <trkpt lon="101.048234" lat="12.700689">
                <ele>32.822266</ele>
                <time>2004-04-24T07:16:55Z</time>
            </trkpt>
            <trkpt lon="101.048191" lat="12.700710">
                <ele>32.822266</ele>
                <time>2004-04-24T07:16:57Z</time>
            </trkpt>
            <trkpt lon="101.048234" lat="12.700603">
                <ele>33.302856</ele>
                <time>2004-04-24T07:17:01Z</time>
            </trkpt>
            <trkpt lon="101.048620" lat="12.700603">
                <ele>34.264160</ele>
                <time>2004-04-24T07:17:15Z</time>
            </trkpt>
            <trkpt lon="101.048684" lat="12.700925">
                <ele>33.302856</ele>
                <time>2004-04-24T07:17:27Z</time>
            </trkpt>
            <trkpt lon="101.048684" lat="12.701461">
                <ele>32.341553</ele>
                <time>2004-04-24T07:17:41Z</time>
            </trkpt>
            <trkpt lon="101.048706" lat="12.702234">
                <ele>32.341553</ele>
                <time>2004-04-24T07:17:59Z</time>
            </trkpt>
            <trkpt lon="101.048706" lat="12.702534">
                <ele>32.341553</ele>
                <time>2004-04-24T07:18:08Z</time>
            </trkpt>
            <trkpt lon="101.048663" lat="12.702577">
                <ele>32.822266</ele>
                <time>2004-04-24T07:18:16Z</time>
            </trkpt>
            <trkpt lon="101.048512" lat="12.702491">
                <ele>32.341553</ele>
                <time>2004-04-24T07:18:25Z</time>
            </trkpt>
            <trkpt lon="101.048234" lat="12.702534">
                <ele>32.822266</ele>
                <time>2004-04-24T07:18:40Z</time>
            </trkpt>
            <trkpt lon="101.048191" lat="12.702534">
                <ele>32.822266</ele>
                <time>2004-04-24T07:18:58Z</time>
            </trkpt>
            <trkpt lon="101.048191" lat="12.702534">
                <ele>32.822266</ele>
                <time>2004-04-24T07:18:59Z</time>
            </trkpt>
            <trkpt lon="101.048512" lat="12.702513">
                <ele>32.822266</ele>
                <time>2004-04-24T07:19:15Z</time>
            </trkpt>
            <trkpt lon="101.048641" lat="12.702556">
                <ele>34.264160</ele>
                <time>2004-04-24T07:19:29Z</time>
            </trkpt>
            <trkpt lon="101.048620" lat="12.702577">
                <ele>35.225464</ele>
                <time>2004-04-24T07:19:57Z</time>
            </trkpt>
            <trkpt lon="101.048663" lat="12.702942">
                <ele>32.341553</ele>
                <time>2004-04-24T07:20:14Z</time>
            </trkpt>
            <trkpt lon="101.048684" lat="12.703285">
                <ele>34.744873</ele>
                <time>2004-04-24T07:20:31Z</time>
            </trkpt>
            <trkpt lon="101.048706" lat="12.703500">
                <ele>36.186768</ele>
                <time>2004-04-24T07:20:56Z</time>
            </trkpt>
            <trkpt lon="101.048727" lat="12.703929">
                <ele>38.109375</ele>
                <time>2004-04-24T07:21:08Z</time>
            </trkpt>
            <trkpt lon="101.048748" lat="12.704508">
                <ele>37.628662</ele>
                <time>2004-04-24T07:21:22Z</time>
            </trkpt>
            <trkpt lon="101.048813" lat="12.705281">
                <ele>36.186768</ele>
                <time>2004-04-24T07:21:41Z</time>
            </trkpt>
            <trkpt lon="101.048834" lat="12.706010">
                <ele>36.186768</ele>
                <time>2004-04-24T07:21:57Z</time>
            </trkpt>
            <trkpt lon="101.048856" lat="12.706375">
                <ele>35.706055</ele>
                <time>2004-04-24T07:22:04Z</time>
            </trkpt>
            <trkpt lon="101.048877" lat="12.707126">
                <ele>36.667480</ele>
                <time>2004-04-24T07:22:21Z</time>
            </trkpt>
            <trkpt lon="101.048920" lat="12.707641">
                <ele>36.667480</ele>
                <time>2004-04-24T07:22:40Z</time>
            </trkpt>
            <trkpt lon="101.048920" lat="12.708070">
                <ele>38.109375</ele>
                <time>2004-04-24T07:22:56Z</time>
            </trkpt>
            <trkpt lon="101.048942" lat="12.708521">
                <ele>38.109375</ele>
                <time>2004-04-24T07:23:08Z</time>
            </trkpt>
            <trkpt lon="101.048942" lat="12.709186">
                <ele>39.070679</ele>
                <time>2004-04-24T07:23:23Z</time>
            </trkpt>
            <trkpt lon="101.048985" lat="12.709744">
                <ele>40.512817</ele>
                <time>2004-04-24T07:23:35Z</time>
            </trkpt>
            <trkpt lon="101.049006" lat="12.710345">
                <ele>40.993408</ele>
                <time>2004-04-24T07:23:48Z</time>
            </trkpt>
            <trkpt lon="101.048985" lat="12.710774">
                <ele>41.473999</ele>
                <time>2004-04-24T07:23:58Z</time>
            </trkpt>
            <trkpt lon="101.048877" lat="12.710774">
                <ele>41.954712</ele>
                <time>2004-04-24T07:24:03Z</time>
            </trkpt>
            <trkpt lon="101.048405" lat="12.710602">
                <ele>44.358032</ele>
                <time>2004-04-24T07:24:21Z</time>
            </trkpt>
            <trkpt lon="101.048427" lat="12.710645">
                <ele>43.877319</ele>
                <time>2004-04-24T07:24:27Z</time>
            </trkpt>
            <trkpt lon="101.048920" lat="12.710817">
                <ele>44.358032</ele>
                <time>2004-04-24T07:24:42Z</time>
            </trkpt>
            <trkpt lon="101.048985" lat="12.710881">
                <ele>43.877319</ele>
                <time>2004-04-24T07:24:45Z</time>
            </trkpt>
            <trkpt lon="101.049049" lat="12.711439">
                <ele>44.358032</ele>
                <time>2004-04-24T07:25:03Z</time>
            </trkpt>
            <trkpt lon="101.049070" lat="12.711761">
                <ele>44.358032</ele>
                <time>2004-04-24T07:25:14Z</time>
            </trkpt>
            <trkpt lon="101.049049" lat="12.711825">
                <ele>44.838623</ele>
                <time>2004-04-24T07:25:25Z</time>
            </trkpt>
            <trkpt lon="101.049049" lat="12.711825">
                <ele>45.799927</ele>
                <time>2004-04-24T07:25:33Z</time>
            </trkpt>
            <trkpt lon="101.049070" lat="12.711568">
                <ele>45.799927</ele>
                <time>2004-04-24T07:25:44Z</time>
            </trkpt>
            <trkpt lon="101.049070" lat="12.710967">
                <ele>46.280640</ele>
                <time>2004-04-24T07:25:59Z</time>
            </trkpt>
            <trkpt lon="101.049113" lat="12.710881">
                <ele>47.241821</ele>
                <time>2004-04-24T07:26:10Z</time>
            </trkpt>
            <trkpt lon="101.049092" lat="12.710903">
                <ele>46.761230</ele>
                <time>2004-04-24T07:26:47Z</time>
            </trkpt>
            <trkpt lon="101.049092" lat="12.710903">
                <ele>45.319214</ele>
                <time>2004-04-24T07:27:16Z</time>
            </trkpt>
            <trkpt lon="101.049049" lat="12.710795">
                <ele>45.799927</ele>
                <time>2004-04-24T07:27:21Z</time>
            </trkpt>
            <trkpt lon="101.049006" lat="12.710044">
                <ele>45.319214</ele>
                <time>2004-04-24T07:27:38Z</time>
            </trkpt>
            <trkpt lon="101.048963" lat="12.708993">
                <ele>43.396606</ele>
                <time>2004-04-24T07:27:56Z</time>
            </trkpt>
            <trkpt lon="101.048963" lat="12.708564">
                <ele>42.916016</ele>
                <time>2004-04-24T07:28:06Z</time>
            </trkpt>
            <trkpt lon="101.048942" lat="12.708156">
                <ele>42.916016</ele>
                <time>2004-04-24T07:28:20Z</time>
            </trkpt>
            <trkpt lon="101.048920" lat="12.707877">
                <ele>42.916016</ele>
                <time>2004-04-24T07:28:32Z</time>
            </trkpt>
            <trkpt lon="101.048856" lat="12.707641">
                <ele>42.916016</ele>
                <time>2004-04-24T07:28:45Z</time>
            </trkpt>
            <trkpt lon="101.048834" lat="12.707362">
                <ele>42.435425</ele>
                <time>2004-04-24T07:29:01Z</time>
            </trkpt>
            <trkpt lon="101.048834" lat="12.707362">
                <ele>41.473999</ele>
                <time>2004-04-24T07:29:28Z</time>
            </trkpt>
            <trkpt lon="101.048834" lat="12.707405">
                <ele>40.512817</ele>
                <time>2004-04-24T07:30:05Z</time>
            </trkpt>
            <trkpt lon="101.048856" lat="12.707384">
                <ele>43.877319</ele>
                <time>2004-04-24T07:32:34Z</time>
            </trkpt>
            <trkpt lon="101.048856" lat="12.707384">
                <ele>45.319214</ele>
                <time>2004-04-24T07:33:37Z</time>
            </trkpt>
            <trkpt lon="101.048856" lat="12.707040">
                <ele>41.954712</ele>
                <time>2004-04-24T07:33:50Z</time>
            </trkpt>
            <trkpt lon="101.048813" lat="12.706225">
                <ele>39.551270</ele>
                <time>2004-04-24T07:34:09Z</time>
            </trkpt>
            <trkpt lon="101.048813" lat="12.705753">
                <ele>39.070679</ele>
                <time>2004-04-24T07:34:20Z</time>
            </trkpt>
            <trkpt lon="101.048791" lat="12.705495">
                <ele>38.109375</ele>
                <time>2004-04-24T07:34:26Z</time>
            </trkpt>
            <trkpt lon="101.048791" lat="12.704659">
                <ele>37.148071</ele>
                <time>2004-04-24T07:34:43Z</time>
            </trkpt>
            <trkpt lon="101.048770" lat="12.703586">
                <ele>36.186768</ele>
                <time>2004-04-24T07:35:02Z</time>
            </trkpt>
            <trkpt lon="101.048706" lat="12.702041">
                <ele>34.744873</ele>
                <time>2004-04-24T07:35:28Z</time>
            </trkpt>
            <trkpt lon="101.048663" lat="12.701440">
                <ele>33.302856</ele>
                <time>2004-04-24T07:35:39Z</time>
            </trkpt>
            <trkpt lon="101.048512" lat="12.701290">
                <ele>32.822266</ele>
                <time>2004-04-24T07:35:44Z</time>
            </trkpt>
            <trkpt lon="101.048148" lat="12.701311">
                <ele>32.341553</ele>
                <time>2004-04-24T07:35:55Z</time>
            </trkpt>
            <trkpt lon="101.047268" lat="12.701612">
                <ele>33.302856</ele>
                <time>2004-04-24T07:36:15Z</time>
            </trkpt>
            <trkpt lon="101.047118" lat="12.701676">
                <ele>34.264160</ele>
                <time>2004-04-24T07:36:24Z</time>
            </trkpt>
            <trkpt lon="101.047139" lat="12.701676">
                <ele>34.744873</ele>
                <time>2004-04-24T07:37:08Z</time>
            </trkpt>
            <trkpt lon="101.047118" lat="12.701676">
                <ele>35.706055</ele>
                <time>2004-04-24T07:37:18Z</time>
            </trkpt>
            <trkpt lon="101.046796" lat="12.701826">
                <ele>36.667480</ele>
                <time>2004-04-24T07:37:33Z</time>
            </trkpt>
            <trkpt lon="101.046581" lat="12.701912">
                <ele>37.148071</ele>
                <time>2004-04-24T07:37:38Z</time>
            </trkpt>
            <trkpt lon="101.046324" lat="12.701890">
                <ele>38.590088</ele>
                <time>2004-04-24T07:37:45Z</time>
            </trkpt>
            <trkpt lon="101.046131" lat="12.701204">
                <ele>40.032104</ele>
                <time>2004-04-24T07:38:01Z</time>
            </trkpt>
            <trkpt lon="101.046023" lat="12.700582">
                <ele>39.551270</ele>
                <time>2004-04-24T07:38:14Z</time>
            </trkpt>
            <trkpt lon="101.045830" lat="12.700496">
                <ele>40.032104</ele>
                <time>2004-04-24T07:38:19Z</time>
            </trkpt>
            <trkpt lon="101.044843" lat="12.700710">
                <ele>43.396606</ele>
                <time>2004-04-24T07:38:37Z</time>
            </trkpt>
            <trkpt lon="101.043963" lat="12.700882">
                <ele>44.838623</ele>
                <time>2004-04-24T07:38:52Z</time>
            </trkpt>
            <trkpt lon="101.043813" lat="12.701032">
                <ele>44.358032</ele>
                <time>2004-04-24T07:38:56Z</time>
            </trkpt>
            <trkpt lon="101.043792" lat="12.701762">
                <ele>43.396606</ele>
                <time>2004-04-24T07:39:09Z</time>
            </trkpt>
            <trkpt lon="101.043642" lat="12.702019">
                <ele>42.435425</ele>
                <time>2004-04-24T07:39:14Z</time>
            </trkpt>
            <trkpt lon="101.043277" lat="12.702363">
                <ele>42.435425</ele>
                <time>2004-04-24T07:39:22Z</time>
            </trkpt>
            <trkpt lon="101.042783" lat="12.703199">
                <ele>41.954712</ele>
                <time>2004-04-24T07:39:40Z</time>
            </trkpt>
            <trkpt lon="101.042247" lat="12.703736">
                <ele>41.954712</ele>
                <time>2004-04-24T07:39:53Z</time>
            </trkpt>
            <trkpt lon="101.042032" lat="12.703865">
                <ele>42.435425</ele>
                <time>2004-04-24T07:39:57Z</time>
            </trkpt>
            <trkpt lon="101.041818" lat="12.703950">
                <ele>42.916016</ele>
                <time>2004-04-24T07:40:01Z</time>
            </trkpt>
            <trkpt lon="101.041303" lat="12.703886">
                <ele>43.396606</ele>
                <time>2004-04-24T07:40:10Z</time>
            </trkpt>
            <trkpt lon="101.040187" lat="12.703414">
                <ele>41.954712</ele>
                <time>2004-04-24T07:40:32Z</time>
            </trkpt>
            <trkpt lon="101.040123" lat="12.703393">
                <ele>41.954712</ele>
                <time>2004-04-24T07:40:33Z</time>
            </trkpt>
            <trkpt lon="101.039672" lat="12.703307">
                <ele>40.993408</ele>
                <time>2004-04-24T07:40:42Z</time>
            </trkpt>
            <trkpt lon="101.039608" lat="12.703435">
                <ele>39.070679</ele>
                <time>2004-04-24T07:40:48Z</time>
            </trkpt>
            <trkpt lon="101.039844" lat="12.704058">
                <ele>38.590088</ele>
                <time>2004-04-24T07:41:07Z</time>
            </trkpt>
            <trkpt lon="101.039929" lat="12.704594">
                <ele>41.473999</ele>
                <time>2004-04-24T07:41:21Z</time>
            </trkpt>
            <trkpt lon="101.039736" lat="12.705410">
                <ele>40.993408</ele>
                <time>2004-04-24T07:41:43Z</time>
            </trkpt>
            <trkpt lon="101.039543" lat="12.706225">
                <ele>40.512817</ele>
                <time>2004-04-24T07:42:04Z</time>
            </trkpt>
            <trkpt lon="101.039436" lat="12.706847">
                <ele>40.032104</ele>
                <time>2004-04-24T07:42:19Z</time>
            </trkpt>
            <trkpt lon="101.039157" lat="12.707748">
                <ele>41.473999</ele>
                <time>2004-04-24T07:42:42Z</time>
            </trkpt>
            <trkpt lon="101.039050" lat="12.708242">
                <ele>42.916016</ele>
                <time>2004-04-24T07:42:55Z</time>
            </trkpt>
            <trkpt lon="101.038899" lat="12.708907">
                <ele>45.799927</ele>
                <time>2004-04-24T07:43:14Z</time>
            </trkpt>
            <trkpt lon="101.038685" lat="12.709680">
                <ele>42.435425</ele>
                <time>2004-04-24T07:43:36Z</time>
            </trkpt>
            <trkpt lon="101.038620" lat="12.710001">
                <ele>44.838623</ele>
                <time>2004-04-24T07:43:49Z</time>
            </trkpt>
            <trkpt lon="101.038642" lat="12.709980">
                <ele>48.203369</ele>
                <time>2004-04-24T07:46:47Z</time>
            </trkpt>
            <trkpt lon="101.038642" lat="12.710066">
                <ele>49.164551</ele>
                <time>2004-04-24T07:47:02Z</time>
            </trkpt>
            <trkpt lon="101.038535" lat="12.710431">
                <ele>48.683960</ele>
                <time>2004-04-24T07:47:17Z</time>
            </trkpt>
            <trkpt lon="101.038556" lat="12.710431">
                <ele>48.683960</ele>
                <time>2004-04-24T07:47:30Z</time>
            </trkpt>
            <trkpt lon="101.038556" lat="12.710452">
                <ele>50.606567</ele>
                <time>2004-04-24T07:47:45Z</time>
            </trkpt>
            <trkpt lon="101.038535" lat="12.710495">
                <ele>50.606567</ele>
                <time>2004-04-24T07:47:50Z</time>
            </trkpt>
            <trkpt lon="101.038320" lat="12.710495">
                <ele>51.567871</ele>
                <time>2004-04-24T07:48:02Z</time>
            </trkpt>
            <trkpt lon="101.037869" lat="12.710495">
                <ele>53.971191</ele>
                <time>2004-04-24T07:48:20Z</time>
            </trkpt>
            <trkpt lon="101.037333" lat="12.710409">
                <ele>55.893799</ele>
                <time>2004-04-24T07:48:37Z</time>
            </trkpt>
            <trkpt lon="101.036797" lat="12.710323">
                <ele>55.893799</ele>
                <time>2004-04-24T07:48:55Z</time>
            </trkpt>
            <trkpt lon="101.036603" lat="12.710302">
                <ele>53.009766</ele>
                <time>2004-04-24T07:49:11Z</time>
            </trkpt>
            <trkpt lon="101.036582" lat="12.710366">
                <ele>53.971191</ele>
                <time>2004-04-24T07:49:34Z</time>
            </trkpt>
            <trkpt lon="101.036582" lat="12.710388">
                <ele>54.451782</ele>
                <time>2004-04-24T07:49:36Z</time>
            </trkpt>
            <trkpt lon="101.036539" lat="12.710581">
                <ele>53.009766</ele>
                <time>2004-04-24T07:49:48Z</time>
            </trkpt>
            <trkpt lon="101.036518" lat="12.710838">
                <ele>52.048584</ele>
                <time>2004-04-24T07:50:01Z</time>
            </trkpt>
            <trkpt lon="101.036518" lat="12.710989">
                <ele>51.567871</ele>
                <time>2004-04-24T07:50:14Z</time>
            </trkpt>
            <trkpt lon="101.036453" lat="12.711117">
                <ele>53.009766</ele>
                <time>2004-04-24T07:50:28Z</time>
            </trkpt>
            <trkpt lon="101.036432" lat="12.711139">
                <ele>53.490479</ele>
                <time>2004-04-24T07:50:32Z</time>
            </trkpt>
            <trkpt lon="101.035917" lat="12.711267">
                <ele>56.855103</ele>
                <time>2004-04-24T07:50:48Z</time>
            </trkpt>
            <trkpt lon="101.035101" lat="12.711482">
                <ele>59.739136</ele>
                <time>2004-04-24T07:51:07Z</time>
            </trkpt>
            <trkpt lon="101.034372" lat="12.711675">
                <ele>62.142334</ele>
                <time>2004-04-24T07:51:26Z</time>
            </trkpt>
            <trkpt lon="101.033621" lat="12.711868">
                <ele>63.103638</ele>
                <time>2004-04-24T07:51:44Z</time>
            </trkpt>
            <trkpt lon="101.032677" lat="12.712147">
                <ele>62.142334</ele>
                <time>2004-04-24T07:52:05Z</time>
            </trkpt>
            <trkpt lon="101.031711" lat="12.712684">
                <ele>63.103638</ele>
                <time>2004-04-24T07:52:22Z</time>
            </trkpt>
            <trkpt lon="101.031454" lat="12.712512">
                <ele>62.142334</ele>
                <time>2004-04-24T07:52:32Z</time>
            </trkpt>
            <trkpt lon="101.031153" lat="12.712340">
                <ele>61.181030</ele>
                <time>2004-04-24T07:52:44Z</time>
            </trkpt>
            <trkpt lon="101.030874" lat="12.712533">
                <ele>61.661743</ele>
                <time>2004-04-24T07:52:52Z</time>
            </trkpt>
            <trkpt lon="101.030853" lat="12.712619">
                <ele>60.700317</ele>
                <time>2004-04-24T07:52:58Z</time>
            </trkpt>
            <trkpt lon="101.030381" lat="12.712791">
                <ele>64.065063</ele>
                <time>2004-04-24T07:53:20Z</time>
            </trkpt>
            <trkpt lon="101.030209" lat="12.712834">
                <ele>65.026367</ele>
                <time>2004-04-24T07:53:39Z</time>
            </trkpt>
            <trkpt lon="101.030037" lat="12.712877">
                <ele>66.468262</ele>
                <time>2004-04-24T07:53:55Z</time>
            </trkpt>
            <trkpt lon="101.029887" lat="12.712920">
                <ele>65.987671</ele>
                <time>2004-04-24T07:54:42Z</time>
            </trkpt>
            <trkpt lon="101.029351" lat="12.713027">
                <ele>70.313477</ele>
                <time>2004-04-24T07:55:03Z</time>
            </trkpt>
            <trkpt lon="101.028750" lat="12.713199">
                <ele>71.274902</ele>
                <time>2004-04-24T07:55:23Z</time>
            </trkpt>
            <trkpt lon="101.027870" lat="12.713456">
                <ele>69.832886</ele>
                <time>2004-04-24T07:55:47Z</time>
            </trkpt>
            <trkpt lon="101.026990" lat="12.713692">
                <ele>71.755493</ele>
                <time>2004-04-24T07:56:08Z</time>
            </trkpt>
            <trkpt lon="101.026561" lat="12.713842">
                <ele>71.755493</ele>
                <time>2004-04-24T07:56:22Z</time>
            </trkpt>
            <trkpt lon="101.026111" lat="12.713993">
                <ele>75.600830</ele>
                <time>2004-04-24T07:56:42Z</time>
            </trkpt>
            <trkpt lon="101.025338" lat="12.714293">
                <ele>73.678223</ele>
                <time>2004-04-24T07:57:05Z</time>
            </trkpt>
            <trkpt lon="101.024609" lat="12.714636">
                <ele>73.678223</ele>
                <time>2004-04-24T07:57:23Z</time>
            </trkpt>
            <trkpt lon="101.023729" lat="12.715087">
                <ele>73.678223</ele>
                <time>2004-04-24T07:57:42Z</time>
            </trkpt>
            <trkpt lon="101.023128" lat="12.715430">
                <ele>73.197632</ele>
                <time>2004-04-24T07:57:54Z</time>
            </trkpt>
            <trkpt lon="101.022270" lat="12.716010">
                <ele>68.390869</ele>
                <time>2004-04-24T07:58:11Z</time>
            </trkpt>
            <trkpt lon="101.022162" lat="12.716074">
                <ele>68.390869</ele>
                <time>2004-04-24T07:58:13Z</time>
            </trkpt>
            <trkpt lon="101.021304" lat="12.716718">
                <ele>64.545654</ele>
                <time>2004-04-24T07:58:31Z</time>
            </trkpt>
            <trkpt lon="101.020424" lat="12.717469">
                <ele>59.258423</ele>
                <time>2004-04-24T07:58:49Z</time>
            </trkpt>
            <trkpt lon="101.020167" lat="12.717683">
                <ele>58.777710</ele>
                <time>2004-04-24T07:58:59Z</time>
            </trkpt>
            <trkpt lon="101.020124" lat="12.717683">
                <ele>58.297119</ele>
                <time>2004-04-24T07:59:14Z</time>
            </trkpt>
            <trkpt lon="101.020124" lat="12.717662">
                <ele>56.374512</ele>
                <time>2004-04-24T07:59:35Z</time>
            </trkpt>
            <trkpt lon="101.020081" lat="12.717361">
                <ele>57.335815</ele>
                <time>2004-04-24T07:59:49Z</time>
            </trkpt>
            <trkpt lon="101.020038" lat="12.717061">
                <ele>60.700317</ele>
                <time>2004-04-24T08:00:08Z</time>
            </trkpt>
            <trkpt lon="101.020060" lat="12.716997">
                <ele>57.816528</ele>
                <time>2004-04-24T08:01:09Z</time>
            </trkpt>
            <trkpt lon="101.019995" lat="12.716739">
                <ele>59.258423</ele>
                <time>2004-04-24T08:01:25Z</time>
            </trkpt>
            <trkpt lon="101.019995" lat="12.716696">
                <ele>59.258423</ele>
                <time>2004-04-24T08:01:44Z</time>
            </trkpt>
            <trkpt lon="101.019995" lat="12.716675">
                <ele>59.258423</ele>
                <time>2004-04-24T08:01:47Z</time>
            </trkpt>
            <trkpt lon="101.019995" lat="12.716310">
                <ele>62.622925</ele>
                <time>2004-04-24T08:02:02Z</time>
            </trkpt>
            <trkpt lon="101.019952" lat="12.715731">
                <ele>61.661743</ele>
                <time>2004-04-24T08:02:18Z</time>
            </trkpt>
            <trkpt lon="101.019888" lat="12.715409">
                <ele>60.700317</ele>
                <time>2004-04-24T08:02:28Z</time>
            </trkpt>
            <trkpt lon="101.019695" lat="12.715065">
                <ele>58.777710</ele>
                <time>2004-04-24T08:02:41Z</time>
            </trkpt>
            <trkpt lon="101.019502" lat="12.714293">
                <ele>57.335815</ele>
                <time>2004-04-24T08:02:58Z</time>
            </trkpt>
            <trkpt lon="101.019330" lat="12.714057">
                <ele>57.335815</ele>
                <time>2004-04-24T08:03:09Z</time>
            </trkpt>
            <trkpt lon="101.019094" lat="12.714143">
                <ele>57.816528</ele>
                <time>2004-04-24T08:03:20Z</time>
            </trkpt>
            <trkpt lon="101.019094" lat="12.714143">
                <ele>57.816528</ele>
                <time>2004-04-24T08:03:22Z</time>
            </trkpt>
            <trkpt lon="101.019373" lat="12.714036">
                <ele>58.297119</ele>
                <time>2004-04-24T08:03:35Z</time>
            </trkpt>
            <trkpt lon="101.019437" lat="12.714100">
                <ele>57.335815</ele>
                <time>2004-04-24T08:03:43Z</time>
            </trkpt>
            <trkpt lon="101.019437" lat="12.714143">
                <ele>56.855103</ele>
                <time>2004-04-24T08:03:44Z</time>
            </trkpt>
            <trkpt lon="101.019630" lat="12.714829">
                <ele>55.413086</ele>
                <time>2004-04-24T08:04:01Z</time>
            </trkpt>
            <trkpt lon="101.019738" lat="12.715259">
                <ele>54.932373</ele>
                <time>2004-04-24T08:04:10Z</time>
            </trkpt>
            <trkpt lon="101.019974" lat="12.715580">
                <ele>55.413086</ele>
                <time>2004-04-24T08:04:20Z</time>
            </trkpt>
            <trkpt lon="101.020060" lat="12.716310">
                <ele>53.971191</ele>
                <time>2004-04-24T08:04:36Z</time>
            </trkpt>
            <trkpt lon="101.020081" lat="12.717168">
                <ele>53.971191</ele>
                <time>2004-04-24T08:04:52Z</time>
            </trkpt>
            <trkpt lon="101.020188" lat="12.717640">
                <ele>55.893799</ele>
                <time>2004-04-24T08:05:05Z</time>
            </trkpt>
            <trkpt lon="101.020231" lat="12.717748">
                <ele>55.413086</ele>
                <time>2004-04-24T08:05:18Z</time>
            </trkpt>
            <trkpt lon="101.020231" lat="12.717748">
                <ele>54.932373</ele>
                <time>2004-04-24T08:05:19Z</time>
            </trkpt>
            <trkpt lon="101.020188" lat="12.717812">
                <ele>54.451782</ele>
                <time>2004-04-24T08:05:38Z</time>
            </trkpt>
            <trkpt lon="101.020167" lat="12.717834">
                <ele>52.529175</ele>
                <time>2004-04-24T08:06:00Z</time>
            </trkpt>
            <trkpt lon="101.020188" lat="12.717855">
                <ele>56.374512</ele>
                <time>2004-04-24T08:07:29Z</time>
            </trkpt>
            <trkpt lon="101.020167" lat="12.717898">
                <ele>55.413086</ele>
                <time>2004-04-24T08:07:38Z</time>
            </trkpt>
            <trkpt lon="101.020167" lat="12.718027">
                <ele>52.529175</ele>
                <time>2004-04-24T08:07:54Z</time>
            </trkpt>
            <trkpt lon="101.020145" lat="12.718027">
                <ele>54.932373</ele>
                <time>2004-04-24T08:08:13Z</time>
            </trkpt>
            <trkpt lon="101.020124" lat="12.718048">
                <ele>55.413086</ele>
                <time>2004-04-24T08:08:35Z</time>
            </trkpt>
            <trkpt lon="101.020145" lat="12.718091">
                <ele>60.219727</ele>
                <time>2004-04-24T08:09:05Z</time>
            </trkpt>
            <trkpt lon="101.020188" lat="12.718091">
                <ele>64.545654</ele>
                <time>2004-04-24T08:09:25Z</time>
            </trkpt>
            <trkpt lon="101.020231" lat="12.718112">
                <ele>60.700317</ele>
                <time>2004-04-24T08:09:51Z</time>
            </trkpt>
            <trkpt lon="101.020253" lat="12.718155">
                <ele>59.739136</ele>
                <time>2004-04-24T08:10:11Z</time>
            </trkpt>
            <trkpt lon="101.020253" lat="12.718198">
                <ele>57.335815</ele>
                <time>2004-04-24T08:10:27Z</time>
            </trkpt>
            <trkpt lon="101.020188" lat="12.718284">
                <ele>55.413086</ele>
                <time>2004-04-24T08:10:39Z</time>
            </trkpt>
            <trkpt lon="101.020124" lat="12.718542">
                <ele>53.971191</ele>
                <time>2004-04-24T08:10:54Z</time>
            </trkpt>
            <trkpt lon="101.020124" lat="12.718542">
                <ele>53.971191</ele>
                <time>2004-04-24T08:10:55Z</time>
            </trkpt>
            <trkpt lon="101.020038" lat="12.718606">
                <ele>56.855103</ele>
                <time>2004-04-24T08:11:10Z</time>
            </trkpt>
            <trkpt lon="101.019974" lat="12.718692">
                <ele>56.855103</ele>
                <time>2004-04-24T08:11:23Z</time>
            </trkpt>
            <trkpt lon="101.019824" lat="12.718949">
                <ele>56.374512</ele>
                <time>2004-04-24T08:11:40Z</time>
            </trkpt>
            <trkpt lon="101.019652" lat="12.719142">
                <ele>54.932373</ele>
                <time>2004-04-24T08:11:56Z</time>
            </trkpt>
            <trkpt lon="101.019652" lat="12.719314">
                <ele>52.048584</ele>
                <time>2004-04-24T08:12:14Z</time>
            </trkpt>
            <trkpt lon="101.019673" lat="12.719400">
                <ele>53.490479</ele>
                <time>2004-04-24T08:12:29Z</time>
            </trkpt>
            <trkpt lon="101.019738" lat="12.719808">
                <ele>53.009766</ele>
                <time>2004-04-24T08:12:48Z</time>
            </trkpt>
            <trkpt lon="101.019738" lat="12.720087">
                <ele>51.567871</ele>
                <time>2004-04-24T08:13:10Z</time>
            </trkpt>
            <trkpt lon="101.019759" lat="12.720065">
                <ele>50.606567</ele>
                <time>2004-04-24T08:13:18Z</time>
            </trkpt>
            <trkpt lon="101.020124" lat="12.720001">
                <ele>54.932373</ele>
                <time>2004-04-24T08:13:39Z</time>
            </trkpt>
            <trkpt lon="101.020553" lat="12.719915">
                <ele>62.142334</ele>
                <time>2004-04-24T08:14:02Z</time>
            </trkpt>
            <trkpt lon="101.020682" lat="12.719872">
                <ele>62.142334</ele>
                <time>2004-04-24T08:14:23Z</time>
            </trkpt>
            <trkpt lon="101.020789" lat="12.719786">
                <ele>62.622925</ele>
                <time>2004-04-24T08:14:38Z</time>
            </trkpt>
            <trkpt lon="101.020875" lat="12.719722">
                <ele>62.622925</ele>
                <time>2004-04-24T08:14:47Z</time>
            </trkpt>
            <trkpt lon="101.021004" lat="12.719808">
                <ele>62.622925</ele>
                <time>2004-04-24T08:15:02Z</time>
            </trkpt>
            <trkpt lon="101.021111" lat="12.719808">
                <ele>66.948975</ele>
                <time>2004-04-24T08:15:24Z</time>
            </trkpt>
            <trkpt lon="101.021411" lat="12.719765">
                <ele>66.948975</ele>
                <time>2004-04-24T08:15:41Z</time>
            </trkpt>
            <trkpt lon="101.021841" lat="12.719657">
                <ele>66.468262</ele>
                <time>2004-04-24T08:16:01Z</time>
            </trkpt>
            <trkpt lon="101.022227" lat="12.719743">
                <ele>65.507080</ele>
                <time>2004-04-24T08:16:20Z</time>
            </trkpt>
            <trkpt lon="101.022420" lat="12.719851">
                <ele>65.987671</ele>
                <time>2004-04-24T08:16:35Z</time>
            </trkpt>
            <trkpt lon="101.022248" lat="12.720172">
                <ele>65.026367</ele>
                <time>2004-04-24T08:16:48Z</time>
            </trkpt>
            <trkpt lon="101.021948" lat="12.720773">
                <ele>61.661743</ele>
                <time>2004-04-24T08:17:08Z</time>
            </trkpt>
            <trkpt lon="101.021798" lat="12.721074">
                <ele>65.026367</ele>
                <time>2004-04-24T08:17:26Z</time>
            </trkpt>
            <trkpt lon="101.021690" lat="12.721245">
                <ele>62.142334</ele>
                <time>2004-04-24T08:17:38Z</time>
            </trkpt>
            <trkpt lon="101.021519" lat="12.721653">
                <ele>63.584351</ele>
                <time>2004-04-24T08:17:55Z</time>
            </trkpt>
            <trkpt lon="101.021261" lat="12.722147">
                <ele>61.181030</ele>
                <time>2004-04-24T08:18:17Z</time>
            </trkpt>
            <trkpt lon="101.021004" lat="12.722533">
                <ele>54.932373</ele>
                <time>2004-04-24T08:18:35Z</time>
            </trkpt>
            <trkpt lon="101.020617" lat="12.723413">
                <ele>54.932373</ele>
                <time>2004-04-24T08:18:54Z</time>
            </trkpt>
            <trkpt lon="101.019952" lat="12.724657">
                <ele>55.893799</ele>
                <time>2004-04-24T08:19:15Z</time>
            </trkpt>
            <trkpt lon="101.019351" lat="12.725730">
                <ele>52.529175</ele>
                <time>2004-04-24T08:19:32Z</time>
            </trkpt>
            <trkpt lon="101.019244" lat="12.725902">
                <ele>51.567871</ele>
                <time>2004-04-24T08:19:36Z</time>
            </trkpt>
            <trkpt lon="101.019223" lat="12.725923">
                <ele>51.567871</ele>
                <time>2004-04-24T08:19:40Z</time>
            </trkpt>
            <trkpt lon="101.019180" lat="12.725880">
                <ele>51.567871</ele>
                <time>2004-04-24T08:19:45Z</time>
            </trkpt>
            <trkpt lon="101.019073" lat="12.725537">
                <ele>53.490479</ele>
                <time>2004-04-24T08:20:01Z</time>
            </trkpt>
            <trkpt lon="101.019008" lat="12.725451">
                <ele>53.009766</ele>
                <time>2004-04-24T08:20:04Z</time>
            </trkpt>
            <trkpt lon="101.018836" lat="12.725043">
                <ele>52.529175</ele>
                <time>2004-04-24T08:20:14Z</time>
            </trkpt>
            <trkpt lon="101.018772" lat="12.724292">
                <ele>52.048584</ele>
                <time>2004-04-24T08:20:31Z</time>
            </trkpt>
            <trkpt lon="101.018708" lat="12.723498">
                <ele>53.009766</ele>
                <time>2004-04-24T08:20:53Z</time>
            </trkpt>
            <trkpt lon="101.018772" lat="12.723134">
                <ele>56.374512</ele>
                <time>2004-04-24T08:21:04Z</time>
            </trkpt>
            <trkpt lon="101.018815" lat="12.723091">
                <ele>57.816528</ele>
                <time>2004-04-24T08:21:16Z</time>
            </trkpt>
            <trkpt lon="101.018815" lat="12.723069">
                <ele>54.451782</ele>
                <time>2004-04-24T08:21:35Z</time>
            </trkpt>
            <trkpt lon="101.018836" lat="12.723091">
                <ele>52.529175</ele>
                <time>2004-04-24T08:21:52Z</time>
            </trkpt>
            <trkpt lon="101.018729" lat="12.723048">
                <ele>53.009766</ele>
                <time>2004-04-24T08:21:58Z</time>
            </trkpt>
            <trkpt lon="101.018622" lat="12.722962">
                <ele>53.009766</ele>
                <time>2004-04-24T08:22:05Z</time>
            </trkpt>
            <trkpt lon="101.018472" lat="12.722812">
                <ele>53.009766</ele>
                <time>2004-04-24T08:22:19Z</time>
            </trkpt>
            <trkpt lon="101.018386" lat="12.722726">
                <ele>53.490479</ele>
                <time>2004-04-24T08:22:24Z</time>
            </trkpt>
            <trkpt lon="101.018300" lat="12.722683">
                <ele>51.087158</ele>
                <time>2004-04-24T08:22:31Z</time>
            </trkpt>
            <trkpt lon="101.018300" lat="12.722619">
                <ele>51.087158</ele>
                <time>2004-04-24T08:22:37Z</time>
            </trkpt>
            <trkpt lon="101.018279" lat="12.722468">
                <ele>49.645264</ele>
                <time>2004-04-24T08:22:48Z</time>
            </trkpt>
            <trkpt lon="101.018150" lat="12.722383">
                <ele>48.683960</ele>
                <time>2004-04-24T08:22:59Z</time>
            </trkpt>
            <trkpt lon="101.018107" lat="12.722297">
                <ele>47.722534</ele>
                <time>2004-04-24T08:23:04Z</time>
            </trkpt>
            <trkpt lon="101.018021" lat="12.722061">
                <ele>48.203369</ele>
                <time>2004-04-24T08:23:17Z</time>
            </trkpt>
            <trkpt lon="101.018043" lat="12.721674">
                <ele>46.761230</ele>
                <time>2004-04-24T08:23:36Z</time>
            </trkpt>
            <trkpt lon="101.018085" lat="12.721589">
                <ele>49.164551</ele>
                <time>2004-04-24T08:23:47Z</time>
            </trkpt>
            <trkpt lon="101.017678" lat="12.721610">
                <ele>50.606567</ele>
                <time>2004-04-24T08:24:06Z</time>
            </trkpt>
            <trkpt lon="101.017077" lat="12.721567">
                <ele>50.125977</ele>
                <time>2004-04-24T08:24:25Z</time>
            </trkpt>
            <trkpt lon="101.016734" lat="12.721524">
                <ele>49.645264</ele>
                <time>2004-04-24T08:24:35Z</time>
            </trkpt>
            <trkpt lon="101.016626" lat="12.721567">
                <ele>49.645264</ele>
                <time>2004-04-24T08:24:38Z</time>
            </trkpt>
            <trkpt lon="101.016326" lat="12.721868">
                <ele>50.125977</ele>
                <time>2004-04-24T08:24:47Z</time>
            </trkpt>
            <trkpt lon="101.015725" lat="12.722490">
                <ele>47.722534</ele>
                <time>2004-04-24T08:25:03Z</time>
            </trkpt>
            <trkpt lon="101.015618" lat="12.722661">
                <ele>48.203369</ele>
                <time>2004-04-24T08:25:08Z</time>
            </trkpt>
            <trkpt lon="101.015382" lat="12.722898">
                <ele>48.683960</ele>
                <time>2004-04-24T08:25:16Z</time>
            </trkpt>
            <trkpt lon="101.014760" lat="12.723563">
                <ele>47.722534</ele>
                <time>2004-04-24T08:25:33Z</time>
            </trkpt>
            <trkpt lon="101.013987" lat="12.724357">
                <ele>47.241821</ele>
                <time>2004-04-24T08:25:53Z</time>
            </trkpt>
            <trkpt lon="101.013322" lat="12.725022">
                <ele>45.319214</ele>
                <time>2004-04-24T08:26:11Z</time>
            </trkpt>
            <trkpt lon="101.012485" lat="12.725902">
                <ele>43.396606</ele>
                <time>2004-04-24T08:26:30Z</time>
            </trkpt>
            <trkpt lon="101.011219" lat="12.727211">
                <ele>40.512817</ele>
                <time>2004-04-24T08:26:57Z</time>
            </trkpt>
            <trkpt lon="101.010833" lat="12.727554">
                <ele>39.070679</ele>
                <time>2004-04-24T08:27:09Z</time>
            </trkpt>
            <trkpt lon="101.010575" lat="12.727811">
                <ele>39.551270</ele>
                <time>2004-04-24T08:27:20Z</time>
            </trkpt>
            <trkpt lon="101.010468" lat="12.727897">
                <ele>39.551270</ele>
                <time>2004-04-24T08:27:23Z</time>
            </trkpt>
            <trkpt lon="101.009781" lat="12.728562">
                <ele>39.551270</ele>
                <time>2004-04-24T08:27:44Z</time>
            </trkpt>
            <trkpt lon="101.009073" lat="12.729292">
                <ele>38.109375</ele>
                <time>2004-04-24T08:28:05Z</time>
            </trkpt>
            <trkpt lon="101.008580" lat="12.729785">
                <ele>37.148071</ele>
                <time>2004-04-24T08:28:21Z</time>
            </trkpt>
            <trkpt lon="101.008000" lat="12.730386">
                <ele>37.628662</ele>
                <time>2004-04-24T08:28:39Z</time>
            </trkpt>
            <trkpt lon="101.007872" lat="12.730515">
                <ele>37.148071</ele>
                <time>2004-04-24T08:28:43Z</time>
            </trkpt>
            <trkpt lon="101.007807" lat="12.730644">
                <ele>37.148071</ele>
                <time>2004-04-24T08:28:46Z</time>
            </trkpt>
            <trkpt lon="101.007378" lat="12.731051">
                <ele>35.706055</ele>
                <time>2004-04-24T08:29:00Z</time>
            </trkpt>
            <trkpt lon="101.007035" lat="12.731395">
                <ele>35.706055</ele>
                <time>2004-04-24T08:29:10Z</time>
            </trkpt>
            <trkpt lon="101.006606" lat="12.731738">
                <ele>32.341553</ele>
                <time>2004-04-24T08:29:24Z</time>
            </trkpt>
            <trkpt lon="101.006413" lat="12.731953">
                <ele>34.264160</ele>
                <time>2004-04-24T08:29:38Z</time>
            </trkpt>
            <trkpt lon="101.006048" lat="12.732275">
                <ele>35.225464</ele>
                <time>2004-04-24T08:29:50Z</time>
            </trkpt>
            <trkpt lon="101.005425" lat="12.732704">
                <ele>35.706055</ele>
                <time>2004-04-24T08:30:07Z</time>
            </trkpt>
            <trkpt lon="101.004910" lat="12.733026">
                <ele>36.186768</ele>
                <time>2004-04-24T08:30:26Z</time>
            </trkpt>
            <trkpt lon="101.004868" lat="12.733068">
                <ele>37.628662</ele>
                <time>2004-04-24T08:30:43Z</time>
            </trkpt>
            <trkpt lon="101.004481" lat="12.733111">
                <ele>36.667480</ele>
                <time>2004-04-24T08:30:56Z</time>
            </trkpt>
            <trkpt lon="101.004117" lat="12.733240">
                <ele>36.186768</ele>
                <time>2004-04-24T08:31:09Z</time>
            </trkpt>
            <trkpt lon="101.004117" lat="12.733240">
                <ele>37.148071</ele>
                <time>2004-04-24T08:31:16Z</time>
            </trkpt>
            <trkpt lon="101.004202" lat="12.733219">
                <ele>37.148071</ele>
                <time>2004-04-24T08:31:21Z</time>
            </trkpt>
            <trkpt lon="101.004760" lat="12.733090">
                <ele>37.628662</ele>
                <time>2004-04-24T08:31:39Z</time>
            </trkpt>
            <trkpt lon="101.004975" lat="12.733133">
                <ele>37.148071</ele>
                <time>2004-04-24T08:31:49Z</time>
            </trkpt>
            <trkpt lon="101.005168" lat="12.733433">
                <ele>35.225464</ele>
                <time>2004-04-24T08:32:03Z</time>
            </trkpt>
            <trkpt lon="101.005490" lat="12.733819">
                <ele>36.667480</ele>
                <time>2004-04-24T08:32:19Z</time>
            </trkpt>
            <trkpt lon="101.005640" lat="12.734528">
                <ele>35.706055</ele>
                <time>2004-04-24T08:32:38Z</time>
            </trkpt>
            <trkpt lon="101.005726" lat="12.734849">
                <ele>37.628662</ele>
                <time>2004-04-24T08:32:46Z</time>
            </trkpt>
            <trkpt lon="101.006176" lat="12.735515">
                <ele>34.264160</ele>
                <time>2004-04-24T08:33:04Z</time>
            </trkpt>
            <trkpt lon="101.006348" lat="12.735815">
                <ele>33.783447</ele>
                <time>2004-04-24T08:33:12Z</time>
            </trkpt>
            <trkpt lon="101.006391" lat="12.736073">
                <ele>33.783447</ele>
                <time>2004-04-24T08:33:18Z</time>
            </trkpt>
            <trkpt lon="101.006198" lat="12.737038">
                <ele>35.225464</ele>
                <time>2004-04-24T08:33:38Z</time>
            </trkpt>
            <trkpt lon="101.006198" lat="12.737103">
                <ele>35.706055</ele>
                <time>2004-04-24T08:33:39Z</time>
            </trkpt>
            <trkpt lon="101.006262" lat="12.737746">
                <ele>37.148071</ele>
                <time>2004-04-24T08:33:55Z</time>
            </trkpt>
            <trkpt lon="101.006284" lat="12.737811">
                <ele>36.667480</ele>
                <time>2004-04-24T08:33:57Z</time>
            </trkpt>
            <trkpt lon="101.006327" lat="12.737982">
                <ele>36.667480</ele>
                <time>2004-04-24T08:34:01Z</time>
            </trkpt>
            <trkpt lon="101.006434" lat="12.738111">
                <ele>36.667480</ele>
                <time>2004-04-24T08:34:05Z</time>
            </trkpt>
            <trkpt lon="101.006734" lat="12.738326">
                <ele>36.186768</ele>
                <time>2004-04-24T08:34:13Z</time>
            </trkpt>
            <trkpt lon="101.006863" lat="12.738540">
                <ele>36.186768</ele>
                <time>2004-04-24T08:34:18Z</time>
            </trkpt>
            <trkpt lon="101.006970" lat="12.738819">
                <ele>35.706055</ele>
                <time>2004-04-24T08:34:24Z</time>
            </trkpt>
            <trkpt lon="101.006799" lat="12.739184">
                <ele>35.225464</ele>
                <time>2004-04-24T08:34:32Z</time>
            </trkpt>
            <trkpt lon="101.006756" lat="12.739463">
                <ele>36.667480</ele>
                <time>2004-04-24T08:34:37Z</time>
            </trkpt>
            <trkpt lon="101.006863" lat="12.740278">
                <ele>37.628662</ele>
                <time>2004-04-24T08:34:52Z</time>
            </trkpt>
            <trkpt lon="101.006970" lat="12.740471">
                <ele>37.148071</ele>
                <time>2004-04-24T08:34:56Z</time>
            </trkpt>
            <trkpt lon="101.007657" lat="12.740750">
                <ele>38.109375</ele>
                <time>2004-04-24T08:35:09Z</time>
            </trkpt>
            <trkpt lon="101.007764" lat="12.741137">
                <ele>36.667480</ele>
                <time>2004-04-24T08:35:18Z</time>
            </trkpt>
            <trkpt lon="101.007764" lat="12.741287">
                <ele>37.148071</ele>
                <time>2004-04-24T08:35:21Z</time>
            </trkpt>
            <trkpt lon="101.007979" lat="12.741866">
                <ele>38.109375</ele>
                <time>2004-04-24T08:35:33Z</time>
            </trkpt>
            <trkpt lon="101.007957" lat="12.742081">
                <ele>39.070679</ele>
                <time>2004-04-24T08:35:37Z</time>
            </trkpt>
            <trkpt lon="101.007957" lat="12.742295">
                <ele>39.551270</ele>
                <time>2004-04-24T08:35:41Z</time>
            </trkpt>
            <trkpt lon="101.008151" lat="12.742853">
                <ele>41.473999</ele>
                <time>2004-04-24T08:35:53Z</time>
            </trkpt>
            <trkpt lon="101.008301" lat="12.743154">
                <ele>43.877319</ele>
                <time>2004-04-24T08:36:00Z</time>
            </trkpt>
            <trkpt lon="101.008537" lat="12.743368">
                <ele>41.954712</ele>
                <time>2004-04-24T08:36:09Z</time>
            </trkpt>
            <trkpt lon="101.008472" lat="12.743454">
                <ele>41.473999</ele>
                <time>2004-04-24T08:36:14Z</time>
            </trkpt>
            <trkpt lon="101.008365" lat="12.743518">
                <ele>42.435425</ele>
                <time>2004-04-24T08:36:25Z</time>
            </trkpt>
            <trkpt lon="101.007743" lat="12.743711">
                <ele>44.838623</ele>
                <time>2004-04-24T08:36:44Z</time>
            </trkpt>
            <trkpt lon="101.007013" lat="12.743840">
                <ele>43.396606</ele>
                <time>2004-04-24T08:37:02Z</time>
            </trkpt>
            <trkpt lon="101.006885" lat="12.743840">
                <ele>40.512817</ele>
                <time>2004-04-24T08:37:15Z</time>
            </trkpt>
            <trkpt lon="101.006734" lat="12.743883">
                <ele>36.667480</ele>
                <time>2004-04-24T08:37:52Z</time>
            </trkpt>
            <trkpt lon="101.006713" lat="12.743905">
                <ele>36.186768</ele>
                <time>2004-04-24T08:38:10Z</time>
            </trkpt>
            <trkpt lon="101.006713" lat="12.743905">
                <ele>35.225464</ele>
                <time>2004-04-24T08:38:40Z</time>
            </trkpt>
            <trkpt lon="101.006563" lat="12.743926">
                <ele>34.744873</ele>
                <time>2004-04-24T08:38:55Z</time>
            </trkpt>
            <trkpt lon="101.006541" lat="12.743926">
                <ele>34.744873</ele>
                <time>2004-04-24T08:39:03Z</time>
            </trkpt>
            <trkpt lon="101.006606" lat="12.743926">
                <ele>34.264160</ele>
                <time>2004-04-24T08:39:19Z</time>
            </trkpt>
            <trkpt lon="101.006606" lat="12.743926">
                <ele>35.706055</ele>
                <time>2004-04-24T08:39:49Z</time>
            </trkpt>
            <trkpt lon="101.006713" lat="12.743883">
                <ele>35.706055</ele>
                <time>2004-04-24T08:40:24Z</time>
            </trkpt>
            <trkpt lon="101.006885" lat="12.743840">
                <ele>32.341553</ele>
                <time>2004-04-24T08:40:36Z</time>
            </trkpt>
            <trkpt lon="101.007035" lat="12.743819">
                <ele>33.783447</ele>
                <time>2004-04-24T08:40:53Z</time>
            </trkpt>
            <trkpt lon="101.007035" lat="12.743819">
                <ele>33.302856</ele>
                <time>2004-04-24T08:41:10Z</time>
            </trkpt>
            <trkpt lon="101.007035" lat="12.743819">
                <ele>32.341553</ele>
                <time>2004-04-24T08:41:20Z</time>
            </trkpt>
            <trkpt lon="101.007421" lat="12.743690">
                <ele>31.380127</ele>
                <time>2004-04-24T08:41:37Z</time>
            </trkpt>
            <trkpt lon="101.007764" lat="12.743669">
                <ele>32.341553</ele>
                <time>2004-04-24T08:41:55Z</time>
            </trkpt>
            <trkpt lon="101.008365" lat="12.743433">
                <ele>33.783447</ele>
                <time>2004-04-24T08:42:21Z</time>
            </trkpt>
            <trkpt lon="101.008451" lat="12.743390">
                <ele>34.264160</ele>
                <time>2004-04-24T08:42:26Z</time>
            </trkpt>
            <trkpt lon="101.008494" lat="12.743411">
                <ele>38.590088</ele>
                <time>2004-04-24T08:42:46Z</time>
            </trkpt>
            <trkpt lon="101.008494" lat="12.743433">
                <ele>40.032104</ele>
                <time>2004-04-24T08:42:57Z</time>
            </trkpt>
            <trkpt lon="101.008666" lat="12.743754">
                <ele>39.551270</ele>
                <time>2004-04-24T08:43:12Z</time>
            </trkpt>
            <trkpt lon="101.008923" lat="12.744205">
                <ele>39.551270</ele>
                <time>2004-04-24T08:43:24Z</time>
            </trkpt>
            <trkpt lon="101.009502" lat="12.744634">
                <ele>42.435425</ele>
                <time>2004-04-24T08:43:40Z</time>
            </trkpt>
            <trkpt lon="101.009910" lat="12.744977">
                <ele>40.993408</ele>
                <time>2004-04-24T08:43:53Z</time>
            </trkpt>
            <trkpt lon="101.010597" lat="12.745214">
                <ele>40.512817</ele>
                <time>2004-04-24T08:44:09Z</time>
            </trkpt>
            <trkpt lon="101.010747" lat="12.745256">
                <ele>40.993408</ele>
                <time>2004-04-24T08:44:12Z</time>
            </trkpt>
            <trkpt lon="101.011069" lat="12.745256">
                <ele>40.032104</ele>
                <time>2004-04-24T08:44:19Z</time>
            </trkpt>
            <trkpt lon="101.011326" lat="12.745128">
                <ele>40.993408</ele>
                <time>2004-04-24T08:44:25Z</time>
            </trkpt>
            <trkpt lon="101.011605" lat="12.744420">
                <ele>40.993408</ele>
                <time>2004-04-24T08:44:41Z</time>
            </trkpt>
            <trkpt lon="101.011777" lat="12.743926">
                <ele>42.435425</ele>
                <time>2004-04-24T08:44:52Z</time>
            </trkpt>
            <trkpt lon="101.011906" lat="12.743883">
                <ele>42.916016</ele>
                <time>2004-04-24T08:44:56Z</time>
            </trkpt>
            <trkpt lon="101.011992" lat="12.743926">
                <ele>42.916016</ele>
                <time>2004-04-24T08:44:58Z</time>
            </trkpt>
            <trkpt lon="101.012120" lat="12.744033">
                <ele>42.916016</ele>
                <time>2004-04-24T08:45:02Z</time>
            </trkpt>
            <trkpt lon="101.012485" lat="12.744570">
                <ele>40.993408</ele>
                <time>2004-04-24T08:45:15Z</time>
            </trkpt>
            <trkpt lon="101.013150" lat="12.745256">
                <ele>40.512817</ele>
                <time>2004-04-24T08:45:35Z</time>
            </trkpt>
            <trkpt lon="101.013472" lat="12.745450">
                <ele>41.473999</ele>
                <time>2004-04-24T08:45:46Z</time>
            </trkpt>
            <trkpt lon="101.013665" lat="12.745428">
                <ele>41.954712</ele>
                <time>2004-04-24T08:45:54Z</time>
            </trkpt>
            <trkpt lon="101.013901" lat="12.745428">
                <ele>40.993408</ele>
                <time>2004-04-24T08:46:00Z</time>
            </trkpt>
            <trkpt lon="101.013987" lat="12.745492">
                <ele>40.512817</ele>
                <time>2004-04-24T08:46:04Z</time>
            </trkpt>
            <trkpt lon="101.014287" lat="12.746115">
                <ele>42.916016</ele>
                <time>2004-04-24T08:46:25Z</time>
            </trkpt>
            <trkpt lon="101.014781" lat="12.746887">
                <ele>41.473999</ele>
                <time>2004-04-24T08:46:43Z</time>
            </trkpt>
            <trkpt lon="101.014888" lat="12.747059">
                <ele>41.954712</ele>
                <time>2004-04-24T08:46:47Z</time>
            </trkpt>
            <trkpt lon="101.015425" lat="12.747703">
                <ele>40.993408</ele>
                <time>2004-04-24T08:47:06Z</time>
            </trkpt>
            <trkpt lon="101.015747" lat="12.747982">
                <ele>40.993408</ele>
                <time>2004-04-24T08:47:16Z</time>
            </trkpt>
            <trkpt lon="101.016347" lat="12.748303">
                <ele>40.512817</ele>
                <time>2004-04-24T08:47:33Z</time>
            </trkpt>
            <trkpt lon="101.016734" lat="12.748690">
                <ele>40.032104</ele>
                <time>2004-04-24T08:47:48Z</time>
            </trkpt>
            <trkpt lon="101.017292" lat="12.748926">
                <ele>41.954712</ele>
                <time>2004-04-24T08:48:03Z</time>
            </trkpt>
            <trkpt lon="101.017892" lat="12.749312">
                <ele>43.877319</ele>
                <time>2004-04-24T08:48:20Z</time>
            </trkpt>
            <trkpt lon="101.018085" lat="12.749462">
                <ele>44.358032</ele>
                <time>2004-04-24T08:48:26Z</time>
            </trkpt>
            <trkpt lon="101.018665" lat="12.750320">
                <ele>46.761230</ele>
                <time>2004-04-24T08:48:50Z</time>
            </trkpt>
            <trkpt lon="101.018901" lat="12.751136">
                <ele>49.164551</ele>
                <time>2004-04-24T08:49:09Z</time>
            </trkpt>
            <trkpt lon="101.018922" lat="12.751501">
                <ele>49.164551</ele>
                <time>2004-04-24T08:49:17Z</time>
            </trkpt>
            <trkpt lon="101.018987" lat="12.751651">
                <ele>47.722534</ele>
                <time>2004-04-24T08:49:21Z</time>
            </trkpt>
            <trkpt lon="101.019094" lat="12.751672">
                <ele>47.722534</ele>
                <time>2004-04-24T08:49:24Z</time>
            </trkpt>
            <trkpt lon="101.019502" lat="12.751565">
                <ele>48.683960</ele>
                <time>2004-04-24T08:49:33Z</time>
            </trkpt>
            <trkpt lon="101.020017" lat="12.751436">
                <ele>50.125977</ele>
                <time>2004-04-24T08:49:43Z</time>
            </trkpt>
            <trkpt lon="101.021068" lat="12.751544">
                <ele>50.606567</ele>
                <time>2004-04-24T08:50:05Z</time>
            </trkpt>
            <trkpt lon="101.021390" lat="12.751522">
                <ele>51.087158</ele>
                <time>2004-04-24T08:50:12Z</time>
            </trkpt>
            <trkpt lon="101.021819" lat="12.751372">
                <ele>51.087158</ele>
                <time>2004-04-24T08:50:23Z</time>
            </trkpt>
            <trkpt lon="101.022656" lat="12.751243">
                <ele>51.087158</ele>
                <time>2004-04-24T08:50:42Z</time>
            </trkpt>
            <trkpt lon="101.023343" lat="12.751222">
                <ele>52.048584</ele>
                <time>2004-04-24T08:50:57Z</time>
            </trkpt>
            <trkpt lon="101.023579" lat="12.751286">
                <ele>53.009766</ele>
                <time>2004-04-24T08:51:03Z</time>
            </trkpt>
            <trkpt lon="101.023579" lat="12.751329">
                <ele>52.048584</ele>
                <time>2004-04-24T08:51:07Z</time>
            </trkpt>
            <trkpt lon="101.023514" lat="12.751544">
                <ele>50.125977</ele>
                <time>2004-04-24T08:51:20Z</time>
            </trkpt>
            <trkpt lon="101.023514" lat="12.751694">
                <ele>51.087158</ele>
                <time>2004-04-24T08:51:34Z</time>
            </trkpt>
            <trkpt lon="101.023514" lat="12.751672">
                <ele>51.087158</ele>
                <time>2004-04-24T08:51:39Z</time>
            </trkpt>
            <trkpt lon="101.023514" lat="12.751544">
                <ele>50.606567</ele>
                <time>2004-04-24T08:51:51Z</time>
            </trkpt>
            <trkpt lon="101.023514" lat="12.751329">
                <ele>50.125977</ele>
                <time>2004-04-24T08:52:34Z</time>
            </trkpt>
            <trkpt lon="101.023536" lat="12.751307">
                <ele>51.087158</ele>
                <time>2004-04-24T08:52:47Z</time>
            </trkpt>
            <trkpt lon="101.023536" lat="12.751286">
                <ele>52.048584</ele>
                <time>2004-04-24T08:54:38Z</time>
            </trkpt>
            <trkpt lon="101.023836" lat="12.751415">
                <ele>51.087158</ele>
                <time>2004-04-24T08:54:51Z</time>
            </trkpt>
            <trkpt lon="101.024480" lat="12.751608">
                <ele>51.567871</ele>
                <time>2004-04-24T08:55:09Z</time>
            </trkpt>
            <trkpt lon="101.024930" lat="12.751758">
                <ele>51.567871</ele>
                <time>2004-04-24T08:55:22Z</time>
            </trkpt>
            <trkpt lon="101.025317" lat="12.751801">
                <ele>52.048584</ele>
                <time>2004-04-24T08:55:34Z</time>
            </trkpt>
            <trkpt lon="101.025596" lat="12.751544">
                <ele>52.529175</ele>
                <time>2004-04-24T08:55:43Z</time>
            </trkpt>
            <trkpt lon="101.026325" lat="12.751093">
                <ele>54.451782</ele>
                <time>2004-04-24T08:56:02Z</time>
            </trkpt>
            <trkpt lon="101.026883" lat="12.750728">
                <ele>54.932373</ele>
                <time>2004-04-24T08:56:18Z</time>
            </trkpt>
            <trkpt lon="101.027505" lat="12.750278">
                <ele>56.855103</ele>
                <time>2004-04-24T08:56:37Z</time>
            </trkpt>
            <trkpt lon="101.027763" lat="12.750084">
                <ele>57.335815</ele>
                <time>2004-04-24T08:56:45Z</time>
            </trkpt>
            <trkpt lon="101.027784" lat="12.749698">
                <ele>55.893799</ele>
                <time>2004-04-24T08:56:54Z</time>
            </trkpt>
            <trkpt lon="101.027334" lat="12.749076">
                <ele>54.451782</ele>
                <time>2004-04-24T08:57:11Z</time>
            </trkpt>
            <trkpt lon="101.027055" lat="12.748668">
                <ele>53.971191</ele>
                <time>2004-04-24T08:57:21Z</time>
            </trkpt>
            <trkpt lon="101.027119" lat="12.748089">
                <ele>52.048584</ele>
                <time>2004-04-24T08:57:34Z</time>
            </trkpt>
            <trkpt lon="101.027162" lat="12.747917">
                <ele>51.087158</ele>
                <time>2004-04-24T08:57:38Z</time>
            </trkpt>
            <trkpt lon="101.027613" lat="12.747424">
                <ele>51.567871</ele>
                <time>2004-04-24T08:57:55Z</time>
            </trkpt>
            <trkpt lon="101.028020" lat="12.747252">
                <ele>51.567871</ele>
                <time>2004-04-24T08:58:07Z</time>
            </trkpt>
            <trkpt lon="101.028793" lat="12.747123">
                <ele>51.567871</ele>
                <time>2004-04-24T08:58:27Z</time>
            </trkpt>
            <trkpt lon="101.029758" lat="12.746823">
                <ele>51.567871</ele>
                <time>2004-04-24T08:58:51Z</time>
            </trkpt>
            <trkpt lon="101.030316" lat="12.746608">
                <ele>52.529175</ele>
                <time>2004-04-24T08:59:07Z</time>
            </trkpt>
            <trkpt lon="101.030445" lat="12.746544">
                <ele>52.529175</ele>
                <time>2004-04-24T08:59:11Z</time>
            </trkpt>
            <trkpt lon="101.030424" lat="12.746372">
                <ele>53.490479</ele>
                <time>2004-04-24T08:59:24Z</time>
            </trkpt>
            <trkpt lon="101.030424" lat="12.746544">
                <ele>53.490479</ele>
                <time>2004-04-24T08:59:33Z</time>
            </trkpt>
            <trkpt lon="101.030509" lat="12.746501">
                <ele>53.971191</ele>
                <time>2004-04-24T08:59:39Z</time>
            </trkpt>
            <trkpt lon="101.031175" lat="12.746072">
                <ele>54.932373</ele>
                <time>2004-04-24T08:59:58Z</time>
            </trkpt>
            <trkpt lon="101.031840" lat="12.745857">
                <ele>53.009766</ele>
                <time>2004-04-24T09:00:15Z</time>
            </trkpt>
            <trkpt lon="101.032419" lat="12.745986">
                <ele>52.529175</ele>
                <time>2004-04-24T09:00:31Z</time>
            </trkpt>
            <trkpt lon="101.032677" lat="12.746115">
                <ele>53.490479</ele>
                <time>2004-04-24T09:00:39Z</time>
            </trkpt>
            <trkpt lon="101.032677" lat="12.746179">
                <ele>54.451782</ele>
                <time>2004-04-24T09:00:43Z</time>
            </trkpt>
            <trkpt lon="101.032677" lat="12.746222">
                <ele>53.490479</ele>
                <time>2004-04-24T09:00:55Z</time>
            </trkpt>
            <trkpt lon="101.032634" lat="12.746222">
                <ele>51.087158</ele>
                <time>2004-04-24T09:02:50Z</time>
            </trkpt>
            <trkpt lon="101.032548" lat="12.746286">
                <ele>50.606567</ele>
                <time>2004-04-24T09:02:54Z</time>
            </trkpt>
            <trkpt lon="101.032484" lat="12.746372">
                <ele>50.606567</ele>
                <time>2004-04-24T09:02:57Z</time>
            </trkpt>
            <trkpt lon="101.032226" lat="12.746909">
                <ele>53.490479</ele>
                <time>2004-04-24T09:03:12Z</time>
            </trkpt>
            <trkpt lon="101.032097" lat="12.747188">
                <ele>54.451782</ele>
                <time>2004-04-24T09:03:21Z</time>
            </trkpt>
            <trkpt lon="101.031733" lat="12.747295">
                <ele>53.971191</ele>
                <time>2004-04-24T09:03:35Z</time>
            </trkpt>
            <trkpt lon="101.031303" lat="12.747402">
                <ele>54.451782</ele>
                <time>2004-04-24T09:03:46Z</time>
            </trkpt>
            <trkpt lon="101.031282" lat="12.747509">
                <ele>55.413086</ele>
                <time>2004-04-24T09:03:53Z</time>
            </trkpt>
            <trkpt lon="101.031196" lat="12.748003">
                <ele>55.413086</ele>
                <time>2004-04-24T09:04:19Z</time>
            </trkpt>
            <trkpt lon="101.031196" lat="12.748067">
                <ele>54.932373</ele>
                <time>2004-04-24T09:04:22Z</time>
            </trkpt>
            <trkpt lon="101.031582" lat="12.748239">
                <ele>53.971191</ele>
                <time>2004-04-24T09:04:40Z</time>
            </trkpt>
            <trkpt lon="101.032119" lat="12.748153">
                <ele>53.490479</ele>
                <time>2004-04-24T09:05:05Z</time>
            </trkpt>
            <trkpt lon="101.032119" lat="12.748218">
                <ele>53.490479</ele>
                <time>2004-04-24T09:05:32Z</time>
            </trkpt>
            <trkpt lon="101.032054" lat="12.748282">
                <ele>53.490479</ele>
                <time>2004-04-24T09:05:39Z</time>
            </trkpt>
            <trkpt lon="101.031904" lat="12.748260">
                <ele>54.451782</ele>
                <time>2004-04-24T09:05:43Z</time>
            </trkpt>
            <trkpt lon="101.031239" lat="12.748175">
                <ele>54.932373</ele>
                <time>2004-04-24T09:06:03Z</time>
            </trkpt>
            <trkpt lon="101.031153" lat="12.748132">
                <ele>53.490479</ele>
                <time>2004-04-24T09:06:07Z</time>
            </trkpt>
            <trkpt lon="101.031239" lat="12.747853">
                <ele>53.490479</ele>
                <time>2004-04-24T09:06:16Z</time>
            </trkpt>
            <trkpt lon="101.031303" lat="12.747660">
                <ele>53.490479</ele>
                <time>2004-04-24T09:06:22Z</time>
            </trkpt>
            <trkpt lon="101.031411" lat="12.747552">
                <ele>52.529175</ele>
                <time>2004-04-24T09:06:26Z</time>
            </trkpt>
            <trkpt lon="101.032269" lat="12.747188">
                <ele>50.606567</ele>
                <time>2004-04-24T09:06:50Z</time>
            </trkpt>
            <trkpt lon="101.032569" lat="12.746587">
                <ele>51.567871</ele>
                <time>2004-04-24T09:07:06Z</time>
            </trkpt>
            <trkpt lon="101.032677" lat="12.746437">
                <ele>52.529175</ele>
                <time>2004-04-24T09:07:12Z</time>
            </trkpt>
            <trkpt lon="101.032741" lat="12.746394">
                <ele>52.529175</ele>
                <time>2004-04-24T09:07:23Z</time>
            </trkpt>
            <trkpt lon="101.032784" lat="12.746351">
                <ele>51.567871</ele>
                <time>2004-04-24T09:07:38Z</time>
            </trkpt>
            <trkpt lon="101.032848" lat="12.746329">
                <ele>50.125977</ele>
                <time>2004-04-24T09:07:51Z</time>
            </trkpt>
            <trkpt lon="101.032870" lat="12.746308">
                <ele>52.048584</ele>
                <time>2004-04-24T09:08:05Z</time>
            </trkpt>
            <trkpt lon="101.032891" lat="12.746329">
                <ele>52.529175</ele>
                <time>2004-04-24T09:08:10Z</time>
            </trkpt>
            <trkpt lon="101.032913" lat="12.746351">
                <ele>53.009766</ele>
                <time>2004-04-24T09:08:32Z</time>
            </trkpt>
            <trkpt lon="101.032848" lat="12.746351">
                <ele>62.622925</ele>
                <time>2004-04-24T09:13:34Z</time>
            </trkpt>
            <trkpt lon="101.032827" lat="12.746673">
                <ele>60.700317</ele>
                <time>2004-04-24T09:13:46Z</time>
            </trkpt>
            <trkpt lon="101.032827" lat="12.747252">
                <ele>57.816528</ele>
                <time>2004-04-24T09:14:02Z</time>
            </trkpt>
            <trkpt lon="101.033106" lat="12.747617">
                <ele>57.816528</ele>
                <time>2004-04-24T09:14:16Z</time>
            </trkpt>
            <trkpt lon="101.033556" lat="12.747638">
                <ele>56.855103</ele>
                <time>2004-04-24T09:14:31Z</time>
            </trkpt>
            <trkpt lon="101.034093" lat="12.747660">
                <ele>56.374512</ele>
                <time>2004-04-24T09:14:48Z</time>
            </trkpt>
            <trkpt lon="101.034544" lat="12.747660">
                <ele>56.374512</ele>
                <time>2004-04-24T09:15:03Z</time>
            </trkpt>
            <trkpt lon="101.034930" lat="12.747874">
                <ele>56.855103</ele>
                <time>2004-04-24T09:15:17Z</time>
            </trkpt>
            <trkpt lon="101.035295" lat="12.748153">
                <ele>57.335815</ele>
                <time>2004-04-24T09:15:32Z</time>
            </trkpt>
            <trkpt lon="101.035788" lat="12.748518">
                <ele>58.297119</ele>
                <time>2004-04-24T09:15:50Z</time>
            </trkpt>
            <trkpt lon="101.036475" lat="12.749054">
                <ele>58.777710</ele>
                <time>2004-04-24T09:16:09Z</time>
            </trkpt>
            <trkpt lon="101.036861" lat="12.749333">
                <ele>59.258423</ele>
                <time>2004-04-24T09:16:19Z</time>
            </trkpt>
            <trkpt lon="101.037054" lat="12.749376">
                <ele>59.258423</ele>
                <time>2004-04-24T09:16:23Z</time>
            </trkpt>
            <trkpt lon="101.037247" lat="12.749398">
                <ele>59.258423</ele>
                <time>2004-04-24T09:16:27Z</time>
            </trkpt>
            <trkpt lon="101.037312" lat="12.749677">
                <ele>59.258423</ele>
                <time>2004-04-24T09:16:34Z</time>
            </trkpt>
            <trkpt lon="101.037226" lat="12.750449">
                <ele>59.258423</ele>
                <time>2004-04-24T09:16:50Z</time>
            </trkpt>
            <trkpt lon="101.037290" lat="12.750578">
                <ele>59.739136</ele>
                <time>2004-04-24T09:16:54Z</time>
            </trkpt>
            <trkpt lon="101.037848" lat="12.750707">
                <ele>58.777710</ele>
                <time>2004-04-24T09:17:08Z</time>
            </trkpt>
            <trkpt lon="101.037848" lat="12.750707">
                <ele>59.258423</ele>
                <time>2004-04-24T09:17:23Z</time>
            </trkpt>
            <trkpt lon="101.037869" lat="12.750685">
                <ele>58.777710</ele>
                <time>2004-04-24T09:18:11Z</time>
            </trkpt>
            <trkpt lon="101.037869" lat="12.750728">
                <ele>59.739136</ele>
                <time>2004-04-24T09:18:34Z</time>
            </trkpt>
            <trkpt lon="101.037891" lat="12.750728">
                <ele>61.661743</ele>
                <time>2004-04-24T09:19:13Z</time>
            </trkpt>
        </trkseg>
    </trk>
</gpx>